FDX2603 EHAM-KIND
Flight info
| Callsign | FDX2603 |
|---|---|
| Flight time | 8h 3m |
| Altitude | 34000 |
| Route | BERGI L60 PENIL M144 BAGSO DCT ULTAG DCT DOGAL/M083F360 DCT 54N020W 53N030W 52N040W 51N050W DCT ALLRY/N0472F360 N476B TOPPS/N0475F380 Q913 CABCI Q29 JHW DCT DJB DCT JEEDR SNKPT2 |
| Aircraft | B77L/H-SDE2E3GHIJ4J5M1P2RWXY/LB1D1 |
Departure
| Time | 2026-04-30 06:12 |
|---|---|
| Airport | Amsterdam Airport Schiphol (EHAM) |
Arrival
| Time | 2026-04-30 14:15 |
|---|---|
| Airport | Indianapolis International Airport (KIND) |
| Time | Latitude | Longitude | Altitude | Speed | Heading |
|---|---|---|---|---|---|
| 2026-04-30 05:23 | 52.29628 | 4.76497 | 4 ft | 0 kts | 148° |
| 2026-04-30 05:55 | 52.29629 | 4.76497 | 3 ft | 1 kts | 148° |
| 2026-04-30 05:55 | 52.29649 | 4.76476 | 4 ft | 4 kts | 147° |
| 2026-04-30 05:55 | 52.29672 | 4.76455 | 4 ft | 4 kts | 162° |
| 2026-04-30 05:56 | 52.29698 | 4.76448 | 5 ft | 4 kts | 188° |
| 2026-04-30 05:56 | 52.29721 | 4.76463 | 5 ft | 4 kts | 228° |
| 2026-04-30 05:56 | 52.29728 | 4.76478 | 5 ft | 1 kts | 238° |
| 2026-04-30 05:56 | 52.29729 | 4.76479 | 5 ft | 0 kts | 238° |
| 2026-04-30 05:59 | 52.29712 | 4.76435 | 5 ft | 11 kts | 238° |
| 2026-04-30 06:00 | 52.29659 | 4.76299 | 3 ft | 17 kts | 238° |
| 2026-04-30 06:00 | 52.29593 | 4.76126 | 3 ft | 18 kts | 238° |
| 2026-04-30 06:00 | 52.29529 | 4.75949 | 3 ft | 18 kts | 245° |
| 2026-04-30 06:00 | 52.29484 | 4.75758 | 3 ft | 18 kts | 243° |
| 2026-04-30 06:01 | 52.29440 | 4.75585 | 3 ft | 15 kts | 279° |
| 2026-04-30 06:01 | 52.29516 | 4.75471 | 2 ft | 15 kts | 328° |
| 2026-04-30 06:01 | 52.29605 | 4.75381 | 3 ft | 15 kts | 328° |
| 2026-04-30 06:01 | 52.29696 | 4.75295 | 3 ft | 15 kts | 339° |
| 2026-04-30 06:02 | 52.29798 | 4.75261 | 3 ft | 15 kts | 336° |
| 2026-04-30 06:02 | 52.29872 | 4.75139 | 4 ft | 15 kts | 311° |
| 2026-04-30 06:02 | 52.29957 | 4.74980 | 3 ft | 25 kts | 311° |
| 2026-04-30 06:02 | 52.30076 | 4.74758 | 6 ft | 26 kts | 311° |
| 2026-04-30 06:03 | 52.30197 | 4.74537 | 14 ft | 26 kts | 311° |
| 2026-04-30 06:03 | 52.30303 | 4.74340 | 10 ft | 21 kts | 310° |
| 2026-04-30 06:03 | 52.30440 | 4.74198 | 3 ft | 25 kts | 358° |
| 2026-04-30 06:03 | 52.30612 | 4.74209 | 3 ft | 25 kts | 4° |
| 2026-04-30 06:04 | 52.30784 | 4.74227 | 3 ft | 25 kts | 4° |
| 2026-04-30 06:04 | 52.30954 | 4.74243 | 3 ft | 25 kts | 4° |
| 2026-04-30 06:04 | 52.31126 | 4.74260 | 3 ft | 25 kts | 3° |
| 2026-04-30 06:05 | 52.31470 | 4.74290 | 4 ft | 25 kts | 4° |
| 2026-04-30 06:05 | 52.31641 | 4.74308 | 4 ft | 25 kts | 4° |
| 2026-04-30 06:05 | 52.31813 | 4.74324 | 3 ft | 24 kts | 3° |
| 2026-04-30 06:05 | 52.31962 | 4.74338 | 3 ft | 19 kts | 1° |
| 2026-04-30 06:06 | 52.32024 | 4.74264 | 3 ft | 18 kts | 290° |
| 2026-04-30 06:06 | 52.32036 | 4.74060 | 3 ft | 18 kts | 273° |
| 2026-04-30 06:06 | 52.32043 | 4.73855 | 3 ft | 18 kts | 273° |
| 2026-04-30 06:06 | 52.32051 | 4.73621 | 4 ft | 27 kts | 271° |
| 2026-04-30 06:07 | 52.32106 | 4.73329 | 4 ft | 28 kts | 317° |
| 2026-04-30 06:07 | 52.32254 | 4.73123 | 4 ft | 28 kts | 319° |
| 2026-04-30 06:07 | 52.32401 | 4.72915 | 4 ft | 28 kts | 319° |
| 2026-04-30 06:07 | 52.32549 | 4.72708 | 4 ft | 28 kts | 319° |
| 2026-04-30 06:08 | 52.32693 | 4.72495 | 4 ft | 28 kts | 312° |
| 2026-04-30 06:08 | 52.32822 | 4.72257 | 4 ft | 28 kts | 311° |
| 2026-04-30 06:08 | 52.32950 | 4.72018 | 4 ft | 28 kts | 311° |
| 2026-04-30 06:08 | 52.33075 | 4.71789 | 4 ft | 24 kts | 311° |
| 2026-04-30 06:09 | 52.33148 | 4.71609 | 4 ft | 18 kts | 279° |
| 2026-04-30 06:09 | 52.33090 | 4.71436 | 4 ft | 18 kts | 222° |
| 2026-04-30 06:09 | 52.32995 | 4.71298 | 3 ft | 18 kts | 220° |
| 2026-04-30 06:09 | 52.32898 | 4.71164 | 3 ft | 18 kts | 223° |
| 2026-04-30 06:10 | 52.32864 | 4.70974 | 2 ft | 17 kts | 274° |
| 2026-04-30 06:10 | 52.32896 | 4.70899 | 2 ft | 6 kts | 347° |
| 2026-04-30 06:10 | 52.32912 | 4.70898 | 2 ft | 0 kts | 0° |
| 2026-04-30 06:11 | 52.32919 | 4.70898 | 2 ft | 9 kts | 0° |
| 2026-04-30 06:11 | 52.33230 | 4.70927 | 0 ft | 81 kts | 3° |
| 2026-04-30 06:11 | 52.34003 | 4.70993 | 3 ft | 140 kts | 3° |
| 2026-04-30 06:11 | 52.35136 | 4.71098 | 36 ft | 182 kts | 7° |
| 2026-04-30 06:12 | 52.36434 | 4.71198 | 451 ft | 190 kts | 7° |
| 2026-04-30 06:12 | 52.37776 | 4.71305 | 1055 ft | 195 kts | 11° |
| 2026-04-30 06:12 | 52.39139 | 4.71398 | 1639 ft | 199 kts | 12° |
| 2026-04-30 06:12 | 52.40576 | 4.71572 | 1978 ft | 217 kts | 12° |
| 2026-04-30 06:13 | 52.42166 | 4.71767 | 2235 ft | 242 kts | 10° |
| 2026-04-30 06:13 | 52.43921 | 4.71962 | 2665 ft | 259 kts | 10° |
| 2026-04-30 06:13 | 52.45748 | 4.72150 | 3409 ft | 266 kts | 9° |
| 2026-04-30 06:13 | 52.47611 | 4.72332 | 4242 ft | 269 kts | 9° |
| 2026-04-30 06:14 | 52.49483 | 4.72512 | 5097 ft | 269 kts | 9° |
| 2026-04-30 06:14 | 52.51357 | 4.72692 | 5918 ft | 272 kts | 9° |
| 2026-04-30 06:14 | 52.53264 | 4.72876 | 6640 ft | 277 kts | 8° |
| 2026-04-30 06:14 | 52.55191 | 4.73063 | 7380 ft | 279 kts | 8° |
| 2026-04-30 06:15 | 52.57143 | 4.73227 | 8096 ft | 282 kts | 4° |
| 2026-04-30 06:15 | 52.59090 | 4.72454 | 8628 ft | 300 kts | 332° |
| 2026-04-30 06:15 | 52.60604 | 4.70056 | 9281 ft | 307 kts | 306° |
| 2026-04-30 06:15 | 52.61793 | 4.67107 | 9884 ft | 313 kts | 306° |
| 2026-04-30 06:16 | 52.63038 | 4.64142 | 10553 ft | 316 kts | 307° |
| 2026-04-30 06:16 | 52.64323 | 4.61105 | 10973 ft | 332 kts | 307° |
| 2026-04-30 06:16 | 52.65691 | 4.57869 | 11154 ft | 356 kts | 307° |
| 2026-04-30 06:16 | 52.67151 | 4.54406 | 11350 ft | 380 kts | 307° |
| 2026-04-30 06:17 | 52.68669 | 4.50791 | 11779 ft | 395 kts | 306° |
| 2026-04-30 06:17 | 52.70246 | 4.47026 | 12485 ft | 403 kts | 306° |
| 2026-04-30 06:17 | 52.71847 | 4.43204 | 13387 ft | 406 kts | 306° |
| 2026-04-30 06:17 | 52.73457 | 4.39359 | 14308 ft | 409 kts | 306° |
| 2026-04-30 06:18 | 52.75035 | 4.35438 | 15048 ft | 411 kts | 301° |
| 2026-04-30 06:18 | 52.76165 | 4.31041 | 15599 ft | 422 kts | 289° |
| 2026-04-30 06:18 | 52.77048 | 4.26390 | 16312 ft | 427 kts | 288° |
| 2026-04-30 06:18 | 52.77918 | 4.21682 | 17093 ft | 430 kts | 288° |
| 2026-04-30 06:19 | 52.78806 | 4.16950 | 17882 ft | 434 kts | 288° |
| 2026-04-30 06:19 | 52.79724 | 4.12175 | 18617 ft | 439 kts | 289° |
| 2026-04-30 06:19 | 52.80668 | 4.07356 | 19258 ft | 443 kts | 289° |
| 2026-04-30 06:19 | 52.81631 | 4.02502 | 19942 ft | 446 kts | 289° |
| 2026-04-30 06:20 | 52.82606 | 3.97607 | 20556 ft | 450 kts | 289° |
| 2026-04-30 06:20 | 52.83593 | 3.92661 | 21182 ft | 454 kts | 289° |
| 2026-04-30 06:20 | 52.84581 | 3.87695 | 21864 ft | 457 kts | 289° |
| 2026-04-30 06:20 | 52.85579 | 3.82669 | 22450 ft | 462 kts | 289° |
| 2026-04-30 06:21 | 52.86585 | 3.77585 | 23047 ft | 466 kts | 289° |
| 2026-04-30 06:21 | 52.87592 | 3.72479 | 23705 ft | 469 kts | 289° |
| 2026-04-30 06:21 | 52.88603 | 3.67337 | 24314 ft | 471 kts | 289° |
| 2026-04-30 06:21 | 52.89613 | 3.62187 | 24977 ft | 470 kts | 289° |
| 2026-04-30 06:22 | 52.90622 | 3.57023 | 25462 ft | 474 kts | 289° |
| 2026-04-30 06:22 | 52.91640 | 3.51802 | 25973 ft | 477 kts | 288° |
| 2026-04-30 06:22 | 52.92648 | 3.46621 | 26436 ft | 482 kts | 289° |
| 2026-04-30 06:22 | 52.93690 | 3.41245 | 26884 ft | 486 kts | 289° |
| 2026-04-30 06:23 | 52.94726 | 3.35888 | 27355 ft | 489 kts | 288° |
| 2026-04-30 06:23 | 52.95767 | 3.30490 | 27869 ft | 491 kts | 288° |
| 2026-04-30 06:23 | 52.96793 | 3.25161 | 28471 ft | 492 kts | 288° |
| 2026-04-30 06:23 | 52.97848 | 3.19660 | 28837 ft | 497 kts | 288° |
| 2026-04-30 06:24 | 52.98884 | 3.14236 | 29305 ft | 499 kts | 288° |
| 2026-04-30 06:24 | 52.99933 | 3.08717 | 29666 ft | 505 kts | 288° |
| 2026-04-30 06:24 | 53.00991 | 3.03128 | 29947 ft | 510 kts | 288° |
| 2026-04-30 06:24 | 53.02053 | 2.97507 | 30505 ft | 509 kts | 287° |
| 2026-04-30 06:25 | 53.03106 | 2.91911 | 31025 ft | 507 kts | 287° |
| 2026-04-30 06:25 | 53.04154 | 2.86327 | 31504 ft | 505 kts | 287° |
| 2026-04-30 06:25 | 53.05198 | 2.80751 | 31901 ft | 505 kts | 287° |
| 2026-04-30 06:25 | 53.06236 | 2.75188 | 32384 ft | 504 kts | 287° |
| 2026-04-30 06:26 | 53.07272 | 2.69625 | 32774 ft | 504 kts | 287° |
| 2026-04-30 06:26 | 53.08304 | 2.64067 | 33318 ft | 500 kts | 287° |
| 2026-04-30 06:26 | 53.09325 | 2.58557 | 33811 ft | 498 kts | 287° |
| 2026-04-30 06:26 | 53.10338 | 2.53043 | 34235 ft | 497 kts | 285° |
| 2026-04-30 06:27 | 53.11185 | 2.47466 | 34403 ft | 499 kts | 279° |
| 2026-04-30 06:27 | 53.12150 | 2.36007 | 34388 ft | 499 kts | 276° |
| 2026-04-30 06:28 | 53.13011 | 2.24592 | 34391 ft | 495 kts | 276° |
| 2026-04-30 06:28 | 53.13895 | 2.13229 | 34389 ft | 494 kts | 276° |
| 2026-04-30 06:29 | 53.14792 | 2.01905 | 34399 ft | 493 kts | 276° |
| 2026-04-30 06:29 | 53.15687 | 1.90554 | 34398 ft | 494 kts | 276° |
| 2026-04-30 06:30 | 53.16570 | 1.79193 | 34387 ft | 495 kts | 276° |
| 2026-04-30 06:30 | 53.17442 | 1.67803 | 34391 ft | 496 kts | 276° |
| 2026-04-30 06:31 | 53.18299 | 1.56467 | 34385 ft | 496 kts | 275° |
| 2026-04-30 06:31 | 53.19151 | 1.45047 | 34389 ft | 496 kts | 275° |
| 2026-04-30 06:32 | 53.19993 | 1.33615 | 34379 ft | 496 kts | 275° |
| 2026-04-30 06:32 | 53.20822 | 1.22202 | 34373 ft | 495 kts | 275° |
| 2026-04-30 06:33 | 53.21639 | 1.10797 | 34371 ft | 494 kts | 275° |
| 2026-04-30 06:33 | 53.22445 | 0.99399 | 34379 ft | 494 kts | 274° |
| 2026-04-30 06:34 | 53.23238 | 0.88014 | 34366 ft | 493 kts | 274° |
| 2026-04-30 06:34 | 53.24019 | 0.76656 | 34369 ft | 492 kts | 274° |
| 2026-04-30 06:35 | 53.24788 | 0.65306 | 34373 ft | 492 kts | 274° |
| 2026-04-30 06:35 | 53.25546 | 0.53947 | 34369 ft | 491 kts | 274° |
| 2026-04-30 06:36 | 53.26288 | 0.42677 | 34365 ft | 492 kts | 274° |
| 2026-04-30 06:36 | 53.27024 | 0.31309 | 34371 ft | 493 kts | 274° |
| 2026-04-30 06:37 | 53.27752 | 0.19922 | 34359 ft | 494 kts | 274° |
| 2026-04-30 06:37 | 53.28472 | 0.08492 | 34359 ft | 495 kts | 274° |
| 2026-04-30 06:38 | 53.29376 | -0.02909 | 34358 ft | 496 kts | 277° |
| 2026-04-30 06:38 | 53.30587 | -0.14295 | 34352 ft | 498 kts | 278° |
| 2026-04-30 06:39 | 53.31783 | -0.25701 | 34350 ft | 498 kts | 277° |
| 2026-04-30 06:39 | 53.32944 | -0.37137 | 34349 ft | 498 kts | 277° |
| 2026-04-30 06:40 | 53.34094 | -0.48569 | 34348 ft | 498 kts | 277° |
| 2026-04-30 06:40 | 53.35245 | -0.60013 | 34349 ft | 498 kts | 277° |
| 2026-04-30 06:41 | 53.36377 | -0.71454 | 34350 ft | 498 kts | 277° |
| 2026-04-30 06:41 | 53.37480 | -0.82897 | 34347 ft | 498 kts | 277° |
| 2026-04-30 06:42 | 53.38578 | -0.94333 | 34346 ft | 497 kts | 277° |
| 2026-04-30 06:42 | 53.39703 | -1.05690 | 34360 ft | 497 kts | 277° |
| 2026-04-30 06:43 | 53.40800 | -1.17136 | 34347 ft | 497 kts | 276° |
| 2026-04-30 06:43 | 53.41863 | -1.28582 | 34354 ft | 497 kts | 276° |
| 2026-04-30 06:44 | 53.42925 | -1.40032 | 34354 ft | 497 kts | 276° |
| 2026-04-30 06:44 | 53.43997 | -1.51481 | 34357 ft | 497 kts | 276° |
| 2026-04-30 06:45 | 53.45048 | -1.62956 | 34359 ft | 498 kts | 276° |
| 2026-04-30 06:45 | 53.46088 | -1.74466 | 34358 ft | 499 kts | 276° |
| 2026-04-30 06:46 | 53.47118 | -1.86007 | 34341 ft | 501 kts | 276° |
| 2026-04-30 06:46 | 53.48121 | -1.97580 | 34343 ft | 501 kts | 275° |
| 2026-04-30 06:47 | 53.49116 | -2.09165 | 34341 ft | 502 kts | 275° |
| 2026-04-30 06:47 | 53.50104 | -2.20760 | 34318 ft | 501 kts | 275° |
| 2026-04-30 06:48 | 53.51083 | -2.32337 | 34301 ft | 500 kts | 275° |
| 2026-04-30 06:48 | 53.52050 | -2.43873 | 34304 ft | 498 kts | 275° |
| 2026-04-30 06:49 | 53.53005 | -2.55407 | 34299 ft | 497 kts | 275° |
| 2026-04-30 06:49 | 53.53947 | -2.66935 | 34308 ft | 498 kts | 275° |
| 2026-04-30 06:50 | 53.54879 | -2.78490 | 34304 ft | 499 kts | 274° |
| 2026-04-30 06:50 | 53.55802 | -2.90072 | 34312 ft | 501 kts | 274° |
| 2026-04-30 06:51 | 53.56718 | -3.01698 | 34309 ft | 502 kts | 274° |
| 2026-04-30 06:51 | 53.57617 | -3.13264 | 34329 ft | 502 kts | 274° |
| 2026-04-30 06:52 | 53.58513 | -3.24936 | 34312 ft | 503 kts | 274° |
| 2026-04-30 06:52 | 53.59398 | -3.36626 | 34287 ft | 503 kts | 274° |
| 2026-04-30 06:53 | 53.60272 | -3.48320 | 34288 ft | 503 kts | 274° |
| 2026-04-30 06:53 | 53.61136 | -3.60017 | 34277 ft | 503 kts | 274° |
| 2026-04-30 06:54 | 53.61823 | -3.69718 | 34267 ft | 501 kts | 272° |
| 2026-04-30 06:54 | 53.62291 | -3.81363 | 34258 ft | 497 kts | 270° |
| 2026-04-30 06:55 | 53.62727 | -3.92949 | 34250 ft | 494 kts | 271° |
| 2026-04-30 06:55 | 53.63200 | -4.04484 | 34250 ft | 493 kts | 270° |
| 2026-04-30 06:56 | 53.63642 | -4.15990 | 34246 ft | 492 kts | 271° |
| 2026-04-30 06:56 | 53.64068 | -4.27465 | 34245 ft | 490 kts | 271° |
| 2026-04-30 06:57 | 53.64482 | -4.38920 | 34227 ft | 489 kts | 270° |
| 2026-04-30 06:57 | 53.64880 | -4.50342 | 34227 ft | 488 kts | 270° |
| 2026-04-30 06:58 | 53.65269 | -4.61752 | 34227 ft | 487 kts | 270° |
| 2026-04-30 06:58 | 53.65649 | -4.73159 | 34245 ft | 488 kts | 271° |
| 2026-04-30 06:59 | 53.66021 | -4.84614 | 34239 ft | 490 kts | 270° |
| 2026-04-30 06:59 | 53.66399 | -4.96118 | 34238 ft | 492 kts | 271° |
| 2026-04-30 07:00 | 53.66778 | -5.07654 | 34235 ft | 493 kts | 270° |
| 2026-04-30 07:00 | 53.67137 | -5.19156 | 34235 ft | 494 kts | 270° |
| 2026-04-30 07:01 | 53.67468 | -5.30724 | 34237 ft | 494 kts | 270° |
| 2026-04-30 07:01 | 53.67791 | -5.42301 | 34223 ft | 494 kts | 270° |
| 2026-04-30 07:02 | 53.68098 | -5.53869 | 34232 ft | 493 kts | 270° |
| 2026-04-30 07:02 | 53.68335 | -5.65411 | 34219 ft | 492 kts | 269° |
| 2026-04-30 07:03 | 53.68547 | -5.76942 | 34225 ft | 491 kts | 269° |
| 2026-04-30 07:03 | 53.68756 | -5.88479 | 34213 ft | 492 kts | 269° |
| 2026-04-30 07:04 | 53.68959 | -6.00007 | 34228 ft | 492 kts | 269° |
| 2026-04-30 07:04 | 53.69152 | -6.11556 | 34219 ft | 492 kts | 269° |
| 2026-04-30 07:05 | 53.69419 | -6.28806 | 34231 ft | 493 kts | 269° |
| 2026-04-30 07:05 | 53.69584 | -6.40394 | 34224 ft | 495 kts | 269° |
| 2026-04-30 07:06 | 53.69739 | -6.52028 | 34210 ft | 496 kts | 269° |
| 2026-04-30 07:06 | 53.69885 | -6.63677 | 34213 ft | 497 kts | 269° |
| 2026-04-30 07:07 | 53.70071 | -6.75347 | 34194 ft | 498 kts | 272° |
| 2026-04-30 07:07 | 53.70856 | -6.86993 | 34204 ft | 499 kts | 275° |
| 2026-04-30 07:08 | 53.71711 | -6.98632 | 34183 ft | 499 kts | 274° |
| 2026-04-30 07:08 | 53.72534 | -7.10268 | 34179 ft | 499 kts | 274° |
| 2026-04-30 07:09 | 53.73326 | -7.21906 | 34186 ft | 498 kts | 274° |
| 2026-04-30 07:09 | 53.74097 | -7.33525 | 34199 ft | 498 kts | 273° |
| 2026-04-30 07:10 | 53.74858 | -7.45154 | 34172 ft | 498 kts | 273° |
| 2026-04-30 07:10 | 53.75608 | -7.56789 | 34163 ft | 498 kts | 273° |
| 2026-04-30 07:11 | 53.76342 | -7.68324 | 34168 ft | 497 kts | 273° |
| 2026-04-30 07:11 | 53.77069 | -7.79939 | 34156 ft | 497 kts | 273° |
| 2026-04-30 07:12 | 53.77784 | -7.91551 | 34160 ft | 497 kts | 272° |
| 2026-04-30 07:12 | 53.78488 | -8.03172 | 34161 ft | 497 kts | 272° |
| 2026-04-30 07:13 | 53.78838 | -8.09021 | 34293 ft | 501 kts | 272° |
| 2026-04-30 07:13 | 53.79185 | -8.14870 | 34635 ft | 500 kts | 272° |
| 2026-04-30 07:13 | 53.79528 | -8.20691 | 35049 ft | 497 kts | 272° |
| 2026-04-30 07:13 | 53.79868 | -8.26499 | 35470 ft | 494 kts | 272° |
| 2026-04-30 07:14 | 53.80204 | -8.32265 | 35856 ft | 492 kts | 272° |
| 2026-04-30 07:14 | 53.80535 | -8.38024 | 36112 ft | 493 kts | 272° |
| 2026-04-30 07:14 | 53.81191 | -8.49642 | 36148 ft | 497 kts | 271° |
| 2026-04-30 07:15 | 53.81838 | -8.61258 | 36147 ft | 494 kts | 271° |
| 2026-04-30 07:15 | 53.82455 | -8.72511 | 36149 ft | 491 kts | 271° |
| 2026-04-30 07:16 | 53.83068 | -8.83903 | 36161 ft | 490 kts | 271° |
| 2026-04-30 07:16 | 53.83674 | -8.95396 | 36180 ft | 490 kts | 271° |
| 2026-04-30 07:17 | 53.84269 | -9.06900 | 36166 ft | 491 kts | 271° |
| 2026-04-30 07:18 | 53.85145 | -9.24199 | 36153 ft | 492 kts | 270° |
| 2026-04-30 07:18 | 53.85716 | -9.35764 | 36163 ft | 493 kts | 270° |
| 2026-04-30 07:19 | 53.86277 | -9.47359 | 36179 ft | 494 kts | 270° |
| 2026-04-30 07:19 | 53.86828 | -9.58990 | 36159 ft | 496 kts | 270° |
| 2026-04-30 07:20 | 53.87370 | -9.70646 | 36146 ft | 496 kts | 270° |
| 2026-04-30 07:20 | 53.87901 | -9.82307 | 36153 ft | 497 kts | 270° |
| 2026-04-30 07:21 | 53.88421 | -9.93986 | 36140 ft | 497 kts | 270° |
| 2026-04-30 07:21 | 53.88930 | -10.05665 | 36159 ft | 497 kts | 270° |
| 2026-04-30 07:22 | 53.89668 | -10.23113 | 36139 ft | 496 kts | 270° |
| 2026-04-30 07:22 | 53.90148 | -10.34790 | 36148 ft | 496 kts | 270° |
| 2026-04-30 07:23 | 53.90615 | -10.46445 | 36141 ft | 495 kts | 270° |
| 2026-04-30 07:23 | 53.91071 | -10.58090 | 36159 ft | 495 kts | 270° |
| 2026-04-30 07:24 | 53.91515 | -10.69744 | 36141 ft | 495 kts | 269° |
| 2026-04-30 07:24 | 53.91948 | -10.81403 | 36144 ft | 495 kts | 269° |
| 2026-04-30 07:25 | 53.92370 | -10.93063 | 36141 ft | 496 kts | 269° |
| 2026-04-30 07:25 | 53.92781 | -11.04740 | 36140 ft | 496 kts | 269° |
| 2026-04-30 07:26 | 53.93181 | -11.16419 | 36147 ft | 496 kts | 269° |
| 2026-04-30 07:26 | 53.93570 | -11.28107 | 36145 ft | 496 kts | 269° |
| 2026-04-30 07:27 | 53.93948 | -11.39809 | 36142 ft | 496 kts | 269° |
| 2026-04-30 07:27 | 53.94314 | -11.51497 | 36142 ft | 496 kts | 269° |
| 2026-04-30 07:28 | 53.94669 | -11.63197 | 36164 ft | 496 kts | 269° |
| 2026-04-30 07:28 | 53.95010 | -11.74820 | 36140 ft | 496 kts | 269° |
| 2026-04-30 07:29 | 53.95341 | -11.86512 | 36135 ft | 496 kts | 268° |
| 2026-04-30 07:29 | 53.95662 | -11.98208 | 36139 ft | 496 kts | 268° |
| 2026-04-30 07:30 | 53.96122 | -12.15757 | 36138 ft | 496 kts | 268° |
| 2026-04-30 07:31 | 53.96414 | -12.27463 | 36140 ft | 496 kts | 268° |
| 2026-04-30 07:31 | 53.96695 | -12.39175 | 36136 ft | 496 kts | 268° |
| 2026-04-30 07:32 | 53.96965 | -12.50900 | 36131 ft | 496 kts | 268° |
| 2026-04-30 07:32 | 53.97224 | -12.62618 | 36130 ft | 497 kts | 268° |
| 2026-04-30 07:33 | 53.97470 | -12.74344 | 36152 ft | 497 kts | 268° |
| 2026-04-30 07:33 | 53.97706 | -12.86073 | 36142 ft | 497 kts | 268° |
| 2026-04-30 07:34 | 53.97931 | -12.97823 | 36120 ft | 498 kts | 268° |
| 2026-04-30 07:34 | 53.98144 | -13.09576 | 36135 ft | 498 kts | 268° |
| 2026-04-30 07:35 | 53.98346 | -13.21326 | 36135 ft | 498 kts | 268° |
| 2026-04-30 07:35 | 53.98535 | -13.33004 | 36134 ft | 498 kts | 268° |
| 2026-04-30 07:36 | 53.98714 | -13.44763 | 36128 ft | 497 kts | 268° |
| 2026-04-30 07:36 | 53.98881 | -13.56504 | 36136 ft | 497 kts | 267° |
| 2026-04-30 07:37 | 53.99037 | -13.68215 | 36130 ft | 495 kts | 267° |
| 2026-04-30 07:37 | 53.99181 | -13.79901 | 36136 ft | 494 kts | 267° |
| 2026-04-30 07:38 | 53.99313 | -13.91548 | 36130 ft | 492 kts | 268° |
| 2026-04-30 07:38 | 53.99432 | -14.03154 | 36134 ft | 490 kts | 268° |
| 2026-04-30 07:39 | 53.99541 | -14.14728 | 36133 ft | 489 kts | 268° |
| 2026-04-30 07:39 | 53.99638 | -14.26272 | 36143 ft | 488 kts | 267° |
| 2026-04-30 07:40 | 53.99724 | -14.37804 | 36153 ft | 488 kts | 268° |
| 2026-04-30 07:40 | 53.99799 | -14.49326 | 36144 ft | 488 kts | 268° |
| 2026-04-30 07:41 | 53.99864 | -14.60857 | 36146 ft | 487 kts | 268° |
| 2026-04-30 07:41 | 53.99917 | -14.72378 | 36151 ft | 487 kts | 268° |
| 2026-04-30 07:42 | 53.99959 | -14.83814 | 36152 ft | 487 kts | 268° |
| 2026-04-30 07:42 | 53.99991 | -14.95339 | 36159 ft | 487 kts | 268° |
| 2026-04-30 07:43 | 54.00069 | -15.06847 | 36151 ft | 487 kts | 269° |
| 2026-04-30 07:43 | 54.00266 | -15.16410 | 36160 ft | 487 kts | 270° |
| 2026-04-30 07:44 | 54.00524 | -15.27890 | 36158 ft | 486 kts | 270° |
| 2026-04-30 07:44 | 54.00751 | -15.39370 | 36158 ft | 485 kts | 269° |
| 2026-04-30 07:45 | 54.00949 | -15.50834 | 36162 ft | 485 kts | 270° |
| 2026-04-30 07:45 | 54.01132 | -15.62307 | 36165 ft | 485 kts | 270° |
| 2026-04-30 07:46 | 54.01304 | -15.73759 | 36161 ft | 485 kts | 270° |
| 2026-04-30 07:46 | 54.01465 | -15.85215 | 36172 ft | 485 kts | 269° |
| 2026-04-30 07:47 | 54.01616 | -15.96665 | 36173 ft | 484 kts | 269° |
| 2026-04-30 07:47 | 54.01756 | -16.08123 | 36171 ft | 485 kts | 270° |
| 2026-04-30 07:48 | 54.01886 | -16.19590 | 36174 ft | 485 kts | 270° |
| 2026-04-30 07:48 | 54.02005 | -16.31066 | 36174 ft | 486 kts | 270° |
| 2026-04-30 07:49 | 54.02113 | -16.42572 | 36166 ft | 486 kts | 270° |
| 2026-04-30 07:49 | 54.02188 | -16.51397 | 36171 ft | 487 kts | 269° |
| 2026-04-30 07:50 | 54.02251 | -16.59385 | 36176 ft | 487 kts | 269° |
| 2026-04-30 07:50 | 54.02332 | -16.70905 | 36179 ft | 487 kts | 269° |
| 2026-04-30 07:51 | 54.02402 | -16.82432 | 36177 ft | 487 kts | 269° |
| 2026-04-30 07:51 | 54.02461 | -16.93953 | 36180 ft | 487 kts | 269° |
| 2026-04-30 07:52 | 54.02509 | -17.05470 | 36180 ft | 487 kts | 269° |
| 2026-04-30 07:52 | 54.02546 | -17.16998 | 36183 ft | 487 kts | 269° |
| 2026-04-30 07:53 | 54.02571 | -17.28510 | 36188 ft | 486 kts | 270° |
| 2026-04-30 07:53 | 54.02587 | -17.40008 | 36186 ft | 485 kts | 270° |
| 2026-04-30 07:54 | 54.02592 | -17.51468 | 36179 ft | 484 kts | 269° |
| 2026-04-30 07:54 | 54.02585 | -17.62908 | 36187 ft | 483 kts | 269° |
| 2026-04-30 07:55 | 54.02566 | -17.74312 | 36186 ft | 482 kts | 270° |
| 2026-04-30 07:55 | 54.02538 | -17.85689 | 36196 ft | 480 kts | 270° |
| 2026-04-30 07:56 | 54.02499 | -17.97042 | 36192 ft | 480 kts | 270° |
| 2026-04-30 07:56 | 54.02450 | -18.08307 | 36203 ft | 479 kts | 270° |
| 2026-04-30 07:57 | 54.02390 | -18.19645 | 36195 ft | 480 kts | 270° |
| 2026-04-30 07:57 | 54.02320 | -18.30985 | 36202 ft | 479 kts | 269° |
| 2026-04-30 07:58 | 54.02238 | -18.42313 | 36198 ft | 479 kts | 269° |
| 2026-04-30 07:58 | 54.02146 | -18.53628 | 36199 ft | 478 kts | 269° |
| 2026-04-30 07:59 | 54.02043 | -18.64934 | 36202 ft | 478 kts | 269° |
| 2026-04-30 07:59 | 54.01930 | -18.76228 | 36204 ft | 477 kts | 269° |
| 2026-04-30 08:00 | 54.01742 | -18.93112 | 36201 ft | 476 kts | 269° |
| 2026-04-30 08:00 | 54.01604 | -19.04353 | 36215 ft | 474 kts | 268° |
| 2026-04-30 08:01 | 54.01454 | -19.15553 | 36206 ft | 473 kts | 268° |
| 2026-04-30 08:01 | 54.01297 | -19.26653 | 36204 ft | 472 kts | 268° |
| 2026-04-30 08:02 | 54.01041 | -19.43344 | 36207 ft | 470 kts | 268° |
| 2026-04-30 08:03 | 54.00665 | -19.65505 | 36210 ft | 468 kts | 267° |
| 2026-04-30 08:04 | 54.00462 | -19.76558 | 36213 ft | 468 kts | 267° |
| 2026-04-30 08:04 | 54.00250 | -19.87611 | 36222 ft | 468 kts | 267° |
| 2026-04-30 08:05 | 54.00028 | -19.98647 | 36213 ft | 467 kts | 267° |
| 2026-04-30 08:05 | 53.99509 | -20.09644 | 36217 ft | 466 kts | 263° |
| 2026-04-30 08:06 | 53.98846 | -20.20600 | 36213 ft | 466 kts | 263° |
| 2026-04-30 08:06 | 53.98176 | -20.31553 | 36212 ft | 466 kts | 263° |
| 2026-04-30 08:07 | 53.97514 | -20.42501 | 36227 ft | 466 kts | 263° |
| 2026-04-30 08:07 | 53.96851 | -20.53431 | 36215 ft | 465 kts | 263° |
| 2026-04-30 08:08 | 53.96181 | -20.64343 | 36220 ft | 464 kts | 263° |
| 2026-04-30 08:08 | 53.95502 | -20.75221 | 36220 ft | 463 kts | 263° |
| 2026-04-30 08:09 | 53.94817 | -20.86028 | 36220 ft | 463 kts | 263° |
| 2026-04-30 08:09 | 53.94119 | -20.96889 | 36240 ft | 462 kts | 262° |
| 2026-04-30 08:10 | 53.93424 | -21.07558 | 36206 ft | 444 kts | 262° |
| 2026-04-30 08:10 | 53.92743 | -21.17863 | 36220 ft | 438 kts | 262° |
| 2026-04-30 08:11 | 53.92053 | -21.28145 | 36226 ft | 438 kts | 262° |
| 2026-04-30 08:11 | 53.91354 | -21.38426 | 36226 ft | 438 kts | 262° |
| 2026-04-30 08:12 | 53.90648 | -21.48696 | 36236 ft | 438 kts | 262° |
| 2026-04-30 08:12 | 53.89934 | -21.58954 | 36243 ft | 439 kts | 262° |
| 2026-04-30 08:13 | 53.89209 | -21.69236 | 36218 ft | 439 kts | 262° |
| 2026-04-30 08:13 | 53.88476 | -21.79507 | 36228 ft | 438 kts | 262° |
| 2026-04-30 08:14 | 53.87736 | -21.89740 | 36235 ft | 437 kts | 262° |
| 2026-04-30 08:14 | 53.86989 | -21.99954 | 36234 ft | 436 kts | 261° |
| 2026-04-30 08:15 | 53.86235 | -22.10148 | 36235 ft | 436 kts | 261° |
| 2026-04-30 08:15 | 53.85472 | -22.20330 | 36242 ft | 436 kts | 261° |
| 2026-04-30 08:16 | 53.84701 | -22.30512 | 36238 ft | 436 kts | 261° |
| 2026-04-30 08:16 | 53.83921 | -22.40689 | 36245 ft | 436 kts | 261° |
| 2026-04-30 08:17 | 53.83131 | -22.50882 | 36239 ft | 437 kts | 261° |
| 2026-04-30 08:17 | 53.82332 | -22.61075 | 36245 ft | 437 kts | 261° |
| 2026-04-30 08:18 | 53.81526 | -22.71249 | 36246 ft | 436 kts | 261° |
| 2026-04-30 08:18 | 53.80712 | -22.81408 | 36253 ft | 435 kts | 261° |
| 2026-04-30 08:19 | 53.79890 | -22.91548 | 36265 ft | 435 kts | 261° |
| 2026-04-30 08:19 | 53.79066 | -23.01612 | 36252 ft | 435 kts | 261° |
| 2026-04-30 08:20 | 53.78227 | -23.11740 | 36266 ft | 435 kts | 261° |
| 2026-04-30 08:20 | 53.77380 | -23.21877 | 36262 ft | 436 kts | 261° |
| 2026-04-30 08:21 | 53.76521 | -23.32040 | 36270 ft | 437 kts | 261° |
| 2026-04-30 08:21 | 53.75652 | -23.42213 | 36267 ft | 438 kts | 261° |
| 2026-04-30 08:22 | 53.74775 | -23.52386 | 36272 ft | 437 kts | 261° |
| 2026-04-30 08:22 | 53.73888 | -23.62552 | 36278 ft | 437 kts | 262° |
| 2026-04-30 08:23 | 53.72993 | -23.72711 | 36280 ft | 438 kts | 262° |
| 2026-04-30 08:23 | 53.72089 | -23.82892 | 36286 ft | 439 kts | 262° |
| 2026-04-30 08:24 | 53.71173 | -23.93084 | 36282 ft | 439 kts | 262° |
| 2026-04-30 08:24 | 53.70248 | -24.03282 | 36293 ft | 439 kts | 262° |
| 2026-04-30 08:25 | 53.69314 | -24.13477 | 36279 ft | 440 kts | 263° |
| 2026-04-30 08:25 | 53.68370 | -24.23679 | 36290 ft | 441 kts | 262° |
| 2026-04-30 08:26 | 53.67415 | -24.33911 | 36295 ft | 442 kts | 262° |
| 2026-04-30 08:26 | 53.66448 | -24.44166 | 36297 ft | 443 kts | 263° |
| 2026-04-30 08:27 | 53.65472 | -24.54429 | 36301 ft | 444 kts | 262° |
| 2026-04-30 08:27 | 53.64485 | -24.64699 | 36284 ft | 444 kts | 262° |
| 2026-04-30 08:28 | 53.63490 | -24.74951 | 36299 ft | 444 kts | 263° |
| 2026-04-30 08:28 | 53.62486 | -24.85216 | 36302 ft | 445 kts | 262° |
| 2026-04-30 08:29 | 53.61478 | -24.95431 | 36307 ft | 445 kts | 263° |
| 2026-04-30 08:29 | 53.60451 | -25.05732 | 36315 ft | 446 kts | 263° |
| 2026-04-30 08:30 | 53.59415 | -25.16026 | 36301 ft | 446 kts | 262° |
| 2026-04-30 08:30 | 53.58369 | -25.26327 | 36315 ft | 446 kts | 262° |
| 2026-04-30 08:31 | 53.57494 | -25.34888 | 36313 ft | 447 kts | 262° |
| 2026-04-30 08:31 | 53.56256 | -25.46876 | 36325 ft | 448 kts | 263° |
| 2026-04-30 08:32 | 53.55179 | -25.57208 | 36320 ft | 449 kts | 262° |
| 2026-04-30 08:32 | 53.54269 | -25.65872 | 36322 ft | 449 kts | 262° |
| 2026-04-30 08:33 | 53.53180 | -25.76147 | 36323 ft | 449 kts | 263° |
| 2026-04-30 08:33 | 53.52077 | -25.86480 | 36327 ft | 449 kts | 263° |
| 2026-04-30 08:34 | 53.50965 | -25.96802 | 36327 ft | 449 kts | 262° |
| 2026-04-30 08:34 | 53.49844 | -26.07112 | 36325 ft | 449 kts | 262° |
| 2026-04-30 08:35 | 53.48715 | -26.17424 | 36327 ft | 449 kts | 262° |
| 2026-04-30 08:35 | 53.47577 | -26.27719 | 36327 ft | 449 kts | 262° |
| 2026-04-30 08:36 | 53.46430 | -26.38020 | 36338 ft | 449 kts | 262° |
| 2026-04-30 08:36 | 53.45274 | -26.48311 | 36337 ft | 449 kts | 262° |
| 2026-04-30 08:37 | 53.44107 | -26.58613 | 36342 ft | 450 kts | 262° |
| 2026-04-30 08:37 | 53.42931 | -26.68915 | 36343 ft | 450 kts | 262° |
| 2026-04-30 08:38 | 53.41752 | -26.79160 | 36336 ft | 451 kts | 262° |
| 2026-04-30 08:38 | 53.40555 | -26.89481 | 36345 ft | 452 kts | 262° |
| 2026-04-30 08:39 | 53.39346 | -26.99819 | 36343 ft | 453 kts | 262° |
| 2026-04-30 08:39 | 53.38124 | -27.10181 | 36344 ft | 454 kts | 262° |
| 2026-04-30 08:40 | 53.36893 | -27.20547 | 36349 ft | 454 kts | 262° |
| 2026-04-30 08:40 | 53.35649 | -27.30930 | 36348 ft | 455 kts | 262° |
| 2026-04-30 08:41 | 53.34397 | -27.41306 | 36349 ft | 455 kts | 262° |
| 2026-04-30 08:41 | 53.33135 | -27.51677 | 36351 ft | 454 kts | 262° |
| 2026-04-30 08:42 | 53.31867 | -27.62027 | 36353 ft | 454 kts | 262° |
| 2026-04-30 08:42 | 53.30589 | -27.72374 | 36337 ft | 454 kts | 262° |
| 2026-04-30 08:43 | 53.29301 | -27.82723 | 36351 ft | 455 kts | 262° |
| 2026-04-30 08:43 | 53.28003 | -27.93081 | 36366 ft | 456 kts | 262° |
| 2026-04-30 08:44 | 53.26691 | -28.03468 | 36362 ft | 458 kts | 262° |
| 2026-04-30 08:44 | 53.25365 | -28.13888 | 36366 ft | 459 kts | 261° |
| 2026-04-30 08:45 | 53.24035 | -28.24258 | 36352 ft | 460 kts | 262° |
| 2026-04-30 08:45 | 53.22686 | -28.34705 | 36369 ft | 461 kts | 262° |
| 2026-04-30 08:46 | 53.21324 | -28.45171 | 36366 ft | 462 kts | 261° |
| 2026-04-30 08:46 | 53.19951 | -28.55645 | 36370 ft | 462 kts | 261° |
| 2026-04-30 08:47 | 53.18567 | -28.66125 | 36370 ft | 462 kts | 261° |
| 2026-04-30 08:47 | 53.17173 | -28.76599 | 36353 ft | 462 kts | 262° |
| 2026-04-30 08:48 | 53.15773 | -28.87051 | 36367 ft | 462 kts | 261° |
| 2026-04-30 08:48 | 53.14364 | -28.97492 | 36372 ft | 462 kts | 261° |
| 2026-04-30 08:49 | 53.12947 | -29.07923 | 36384 ft | 462 kts | 261° |
| 2026-04-30 08:49 | 53.11529 | -29.18283 | 36385 ft | 462 kts | 261° |
| 2026-04-30 08:50 | 53.10094 | -29.28697 | 36372 ft | 462 kts | 261° |
| 2026-04-30 08:50 | 53.08649 | -29.39110 | 36382 ft | 462 kts | 261° |
| 2026-04-30 08:51 | 53.07194 | -29.49524 | 36379 ft | 463 kts | 261° |
| 2026-04-30 08:51 | 53.05728 | -29.59943 | 36381 ft | 463 kts | 261° |
| 2026-04-30 08:52 | 53.04252 | -29.70360 | 36384 ft | 463 kts | 261° |
| 2026-04-30 08:52 | 53.02766 | -29.80779 | 36376 ft | 463 kts | 261° |
| 2026-04-30 08:53 | 53.01272 | -29.91202 | 36388 ft | 464 kts | 261° |
| 2026-04-30 08:53 | 52.99870 | -30.01649 | 36385 ft | 461 kts | 266° |
| 2026-04-30 08:54 | 52.99233 | -30.12193 | 36393 ft | 459 kts | 269° |
| 2026-04-30 08:54 | 52.98667 | -30.22762 | 36388 ft | 460 kts | 269° |
| 2026-04-30 08:55 | 52.98071 | -30.33325 | 36378 ft | 460 kts | 269° |
| 2026-04-30 08:55 | 52.97447 | -30.43903 | 36398 ft | 461 kts | 269° |
| 2026-04-30 08:56 | 52.96807 | -30.54497 | 36400 ft | 462 kts | 269° |
| 2026-04-30 08:56 | 52.96156 | -30.65099 | 36397 ft | 463 kts | 269° |
| 2026-04-30 08:57 | 52.95494 | -30.75726 | 36395 ft | 463 kts | 268° |
| 2026-04-30 08:57 | 52.94823 | -30.86352 | 36388 ft | 464 kts | 268° |
| 2026-04-30 08:58 | 52.94141 | -30.96991 | 36400 ft | 464 kts | 268° |
| 2026-04-30 08:58 | 52.93451 | -31.07622 | 36399 ft | 464 kts | 268° |
| 2026-04-30 08:59 | 52.92755 | -31.18191 | 36391 ft | 464 kts | 268° |
| 2026-04-30 08:59 | 52.92044 | -31.28832 | 36403 ft | 464 kts | 268° |
| 2026-04-30 09:00 | 52.91324 | -31.39475 | 36388 ft | 465 kts | 268° |
| 2026-04-30 09:00 | 52.90594 | -31.50111 | 36404 ft | 465 kts | 267° |
| 2026-04-30 09:01 | 52.89853 | -31.60774 | 36407 ft | 466 kts | 267° |
| 2026-04-30 09:01 | 52.89103 | -31.71423 | 36401 ft | 466 kts | 267° |
| 2026-04-30 09:02 | 52.87957 | -31.87421 | 36401 ft | 467 kts | 267° |
| 2026-04-30 09:02 | 52.87181 | -31.98095 | 36402 ft | 467 kts | 267° |
| 2026-04-30 09:03 | 52.86395 | -32.08757 | 36409 ft | 467 kts | 267° |
| 2026-04-30 09:03 | 52.85605 | -32.19358 | 36407 ft | 467 kts | 266° |
| 2026-04-30 09:04 | 52.84799 | -32.30035 | 36410 ft | 468 kts | 266° |
| 2026-04-30 09:04 | 52.83983 | -32.40709 | 36402 ft | 468 kts | 266° |
| 2026-04-30 09:05 | 52.83157 | -32.51383 | 36410 ft | 468 kts | 266° |
| 2026-04-30 09:05 | 52.82322 | -32.62052 | 36406 ft | 468 kts | 266° |
| 2026-04-30 09:06 | 52.81477 | -32.72712 | 36394 ft | 464 kts | 266° |
| 2026-04-30 09:06 | 52.80637 | -32.83147 | 36405 ft | 455 kts | 266° |
| 2026-04-30 09:07 | 52.79798 | -32.93517 | 36420 ft | 455 kts | 266° |
| 2026-04-30 09:07 | 52.78949 | -33.03901 | 36400 ft | 456 kts | 266° |
| 2026-04-30 09:08 | 52.78090 | -33.14282 | 36421 ft | 456 kts | 266° |
| 2026-04-30 09:08 | 52.77220 | -33.24676 | 36415 ft | 457 kts | 266° |
| 2026-04-30 09:09 | 52.76338 | -33.35093 | 36428 ft | 458 kts | 266° |
| 2026-04-30 09:09 | 52.75446 | -33.45517 | 36420 ft | 459 kts | 265° |
| 2026-04-30 09:10 | 52.74542 | -33.55964 | 36408 ft | 460 kts | 265° |
| 2026-04-30 09:10 | 52.73629 | -33.66410 | 36416 ft | 460 kts | 265° |
| 2026-04-30 09:11 | 52.72713 | -33.76788 | 36422 ft | 460 kts | 265° |
| 2026-04-30 09:11 | 52.71774 | -33.87305 | 36419 ft | 461 kts | 265° |
| 2026-04-30 09:12 | 52.70838 | -33.97687 | 36426 ft | 460 kts | 265° |
| 2026-04-30 09:12 | 52.69889 | -34.08118 | 36411 ft | 460 kts | 265° |
| 2026-04-30 09:13 | 52.68928 | -34.18554 | 36422 ft | 460 kts | 264° |
| 2026-04-30 09:13 | 52.67960 | -34.28976 | 36422 ft | 460 kts | 264° |
| 2026-04-30 09:14 | 52.66983 | -34.39394 | 36430 ft | 460 kts | 264° |
| 2026-04-30 09:14 | 52.65996 | -34.49814 | 36429 ft | 460 kts | 264° |
| 2026-04-30 09:15 | 52.65001 | -34.60222 | 36421 ft | 460 kts | 264° |
| 2026-04-30 09:15 | 52.63995 | -34.70641 | 36427 ft | 461 kts | 264° |
| 2026-04-30 09:16 | 52.62977 | -34.81079 | 36431 ft | 462 kts | 264° |
| 2026-04-30 09:16 | 52.61949 | -34.91521 | 36434 ft | 462 kts | 264° |
| 2026-04-30 09:17 | 52.60911 | -35.01969 | 36433 ft | 463 kts | 263° |
| 2026-04-30 09:17 | 52.59864 | -35.12410 | 36429 ft | 462 kts | 263° |
| 2026-04-30 09:18 | 52.58810 | -35.22827 | 36431 ft | 462 kts | 263° |
| 2026-04-30 09:18 | 52.57747 | -35.33230 | 36434 ft | 461 kts | 263° |
| 2026-04-30 09:19 | 52.56857 | -35.41875 | 36436 ft | 461 kts | 263° |
| 2026-04-30 09:19 | 52.55779 | -35.52260 | 36437 ft | 461 kts | 263° |
| 2026-04-30 09:20 | 52.54514 | -35.64325 | 36437 ft | 461 kts | 263° |
| 2026-04-30 09:20 | 52.53595 | -35.73021 | 36432 ft | 462 kts | 263° |
| 2026-04-30 09:21 | 52.52487 | -35.83413 | 36443 ft | 462 kts | 262° |
| 2026-04-30 09:21 | 52.51368 | -35.93820 | 36438 ft | 463 kts | 262° |
| 2026-04-30 09:22 | 52.50238 | -36.04240 | 36438 ft | 464 kts | 262° |
| 2026-04-30 09:22 | 52.49097 | -36.14671 | 36435 ft | 464 kts | 262° |
| 2026-04-30 09:23 | 52.47947 | -36.25087 | 36430 ft | 464 kts | 262° |
| 2026-04-30 09:23 | 52.46789 | -36.35491 | 36437 ft | 463 kts | 262° |
| 2026-04-30 09:24 | 52.45624 | -36.45876 | 36439 ft | 463 kts | 262° |
| 2026-04-30 09:24 | 52.44459 | -36.56169 | 36438 ft | 462 kts | 262° |
| 2026-04-30 09:25 | 52.43279 | -36.66520 | 36439 ft | 462 kts | 261° |
| 2026-04-30 09:25 | 52.42089 | -36.76862 | 36429 ft | 462 kts | 261° |
| 2026-04-30 09:26 | 52.40892 | -36.87188 | 36444 ft | 462 kts | 261° |
| 2026-04-30 09:26 | 52.39683 | -36.97533 | 36448 ft | 463 kts | 261° |
| 2026-04-30 09:27 | 52.38463 | -37.07890 | 36443 ft | 464 kts | 261° |
| 2026-04-30 09:27 | 52.37230 | -37.18271 | 36442 ft | 465 kts | 261° |
| 2026-04-30 09:28 | 52.35988 | -37.28653 | 36436 ft | 466 kts | 261° |
| 2026-04-30 09:28 | 52.34733 | -37.39055 | 36441 ft | 466 kts | 260° |
| 2026-04-30 09:29 | 52.33469 | -37.49449 | 36440 ft | 465 kts | 260° |
| 2026-04-30 09:29 | 52.32199 | -37.59809 | 36440 ft | 464 kts | 260° |
| 2026-04-30 09:30 | 52.30930 | -37.70087 | 36441 ft | 463 kts | 260° |
| 2026-04-30 09:30 | 52.29649 | -37.80381 | 36443 ft | 462 kts | 260° |
| 2026-04-30 09:31 | 52.28361 | -37.90654 | 36441 ft | 461 kts | 260° |
| 2026-04-30 09:31 | 52.27067 | -38.00900 | 36441 ft | 461 kts | 260° |
| 2026-04-30 09:32 | 52.25765 | -38.11136 | 36442 ft | 460 kts | 259° |
| 2026-04-30 09:32 | 52.24455 | -38.21360 | 36442 ft | 461 kts | 259° |
| 2026-04-30 09:33 | 52.23133 | -38.31597 | 36440 ft | 461 kts | 259° |
| 2026-04-30 09:33 | 52.21800 | -38.41847 | 36448 ft | 463 kts | 259° |
| 2026-04-30 09:34 | 52.20453 | -38.52129 | 36446 ft | 465 kts | 259° |
| 2026-04-30 09:34 | 52.19072 | -38.62607 | 36462 ft | 480 kts | 259° |
| 2026-04-30 09:35 | 52.17639 | -38.73393 | 36462 ft | 493 kts | 259° |
| 2026-04-30 09:35 | 52.16162 | -38.84418 | 36448 ft | 500 kts | 258° |
| 2026-04-30 09:36 | 52.14667 | -38.95486 | 36439 ft | 500 kts | 258° |
| 2026-04-30 09:36 | 52.13162 | -39.06544 | 36442 ft | 500 kts | 258° |
| 2026-04-30 09:37 | 52.11649 | -39.17585 | 36444 ft | 499 kts | 258° |
| 2026-04-30 09:37 | 52.10130 | -39.28590 | 36442 ft | 498 kts | 258° |
| 2026-04-30 09:38 | 52.08600 | -39.39592 | 36447 ft | 502 kts | 258° |
| 2026-04-30 09:38 | 52.07040 | -39.50728 | 36448 ft | 508 kts | 258° |
| 2026-04-30 09:39 | 52.05460 | -39.61927 | 36445 ft | 509 kts | 258° |
| 2026-04-30 09:39 | 52.03876 | -39.73067 | 36443 ft | 510 kts | 257° |
| 2026-04-30 09:40 | 52.02271 | -39.84273 | 36441 ft | 509 kts | 257° |
| 2026-04-30 09:40 | 52.00657 | -39.95474 | 36438 ft | 510 kts | 257° |
| 2026-04-30 09:41 | 51.99509 | -40.06792 | 36439 ft | 508 kts | 265° |
| 2026-04-30 09:41 | 51.98900 | -40.18215 | 36442 ft | 508 kts | 266° |
| 2026-04-30 09:42 | 51.98287 | -40.29640 | 36438 ft | 508 kts | 266° |
| 2026-04-30 09:42 | 51.97631 | -40.41069 | 36441 ft | 509 kts | 265° |
| 2026-04-30 09:43 | 51.96948 | -40.52483 | 36436 ft | 509 kts | 265° |
| 2026-04-30 09:43 | 51.96249 | -40.63909 | 36437 ft | 509 kts | 265° |
| 2026-04-30 09:44 | 51.95540 | -40.75328 | 36444 ft | 508 kts | 265° |
| 2026-04-30 09:44 | 51.94824 | -40.86720 | 36436 ft | 507 kts | 265° |
| 2026-04-30 09:45 | 51.94099 | -40.98072 | 36436 ft | 506 kts | 264° |
| 2026-04-30 09:45 | 51.93365 | -41.09401 | 36434 ft | 505 kts | 264° |
| 2026-04-30 09:46 | 51.92625 | -41.20644 | 36442 ft | 505 kts | 264° |
| 2026-04-30 09:46 | 51.91870 | -41.31952 | 36442 ft | 505 kts | 264° |
| 2026-04-30 09:47 | 51.91104 | -41.43248 | 36437 ft | 505 kts | 264° |
| 2026-04-30 09:47 | 51.90327 | -41.54555 | 36440 ft | 505 kts | 264° |
| 2026-04-30 09:48 | 51.89538 | -41.65867 | 36444 ft | 505 kts | 264° |
| 2026-04-30 09:48 | 51.88740 | -41.77155 | 36432 ft | 504 kts | 264° |
| 2026-04-30 09:49 | 51.87931 | -41.88430 | 36440 ft | 504 kts | 264° |
| 2026-04-30 09:49 | 51.87114 | -41.99682 | 36431 ft | 503 kts | 263° |
| 2026-04-30 09:50 | 51.86285 | -42.10937 | 36437 ft | 503 kts | 263° |
| 2026-04-30 09:50 | 51.85446 | -42.22171 | 36433 ft | 503 kts | 263° |
| 2026-04-30 09:51 | 51.84597 | -42.33403 | 36433 ft | 503 kts | 263° |
| 2026-04-30 09:51 | 51.83737 | -42.44628 | 36439 ft | 503 kts | 263° |
| 2026-04-30 09:52 | 51.82867 | -42.55843 | 36434 ft | 502 kts | 263° |
| 2026-04-30 09:52 | 51.81989 | -42.67019 | 36441 ft | 501 kts | 263° |
| 2026-04-30 09:53 | 51.81102 | -42.78172 | 36429 ft | 500 kts | 263° |
| 2026-04-30 09:53 | 51.80212 | -42.89229 | 36434 ft | 499 kts | 262° |
| 2026-04-30 09:54 | 51.79306 | -43.00349 | 36437 ft | 499 kts | 262° |
| 2026-04-30 09:54 | 51.78391 | -43.11445 | 36437 ft | 499 kts | 262° |
| 2026-04-30 09:55 | 51.77464 | -43.22545 | 36431 ft | 499 kts | 262° |
| 2026-04-30 09:55 | 51.76529 | -43.33632 | 36434 ft | 498 kts | 262° |
| 2026-04-30 09:56 | 51.75582 | -43.44715 | 36439 ft | 498 kts | 262° |
| 2026-04-30 09:56 | 51.74628 | -43.55767 | 36430 ft | 498 kts | 262° |
| 2026-04-30 09:57 | 51.73662 | -43.66819 | 36429 ft | 497 kts | 262° |
| 2026-04-30 09:57 | 51.72688 | -43.77858 | 36439 ft | 497 kts | 262° |
| 2026-04-30 09:58 | 51.71703 | -43.88884 | 36434 ft | 497 kts | 262° |
| 2026-04-30 09:58 | 51.70708 | -43.99911 | 36426 ft | 497 kts | 261° |
| 2026-04-30 09:59 | 51.68685 | -44.21963 | 36445 ft | 497 kts | 261° |
| 2026-04-30 10:00 | 51.67142 | -44.38478 | 36439 ft | 496 kts | 261° |
| 2026-04-30 10:01 | 51.65588 | -44.54845 | 36442 ft | 494 kts | 261° |
| 2026-04-30 10:02 | 51.64007 | -44.71259 | 36437 ft | 494 kts | 261° |
| 2026-04-30 10:02 | 51.62941 | -44.82188 | 36433 ft | 495 kts | 260° |
| 2026-04-30 10:03 | 51.61862 | -44.93132 | 36438 ft | 495 kts | 260° |
| 2026-04-30 10:03 | 51.60774 | -45.04072 | 36438 ft | 495 kts | 259° |
| 2026-04-30 10:04 | 51.59675 | -45.15010 | 36439 ft | 495 kts | 259° |
| 2026-04-30 10:04 | 51.58567 | -45.25925 | 36420 ft | 494 kts | 259° |
| 2026-04-30 10:05 | 51.57452 | -45.36802 | 36433 ft | 493 kts | 259° |
| 2026-04-30 10:05 | 51.56328 | -45.47667 | 36439 ft | 492 kts | 259° |
| 2026-04-30 10:06 | 51.55197 | -45.58504 | 36418 ft | 492 kts | 259° |
| 2026-04-30 10:06 | 51.54056 | -45.69332 | 36441 ft | 492 kts | 259° |
| 2026-04-30 10:07 | 51.52911 | -45.80095 | 36430 ft | 492 kts | 259° |
| 2026-04-30 10:07 | 51.51749 | -45.90931 | 36440 ft | 492 kts | 259° |
| 2026-04-30 10:08 | 51.50768 | -45.99995 | 36428 ft | 491 kts | 258° |
| 2026-04-30 10:08 | 51.49597 | -46.10726 | 36436 ft | 490 kts | 258° |
| 2026-04-30 10:09 | 51.48411 | -46.21500 | 36429 ft | 490 kts | 258° |
| 2026-04-30 10:09 | 51.47216 | -46.32264 | 36425 ft | 490 kts | 258° |
| 2026-04-30 10:10 | 51.46010 | -46.43025 | 36434 ft | 490 kts | 258° |
| 2026-04-30 10:10 | 51.44796 | -46.53767 | 36433 ft | 490 kts | 258° |
| 2026-04-30 10:11 | 51.43572 | -46.64505 | 36430 ft | 490 kts | 258° |
| 2026-04-30 10:11 | 51.42337 | -46.75250 | 36442 ft | 490 kts | 258° |
| 2026-04-30 10:12 | 51.41093 | -46.85982 | 36428 ft | 490 kts | 258° |
| 2026-04-30 10:12 | 51.39839 | -46.96706 | 36439 ft | 489 kts | 258° |
| 2026-04-30 10:13 | 51.38578 | -47.07408 | 36426 ft | 489 kts | 257° |
| 2026-04-30 10:13 | 51.37309 | -47.18087 | 36429 ft | 488 kts | 257° |
| 2026-04-30 10:14 | 51.36036 | -47.28704 | 36427 ft | 488 kts | 257° |
| 2026-04-30 10:14 | 51.34100 | -47.44699 | 36426 ft | 488 kts | 257° |
| 2026-04-30 10:15 | 51.32797 | -47.55361 | 36438 ft | 488 kts | 257° |
| 2026-04-30 10:15 | 51.31483 | -47.66019 | 36425 ft | 489 kts | 257° |
| 2026-04-30 10:16 | 51.30160 | -47.76673 | 36421 ft | 489 kts | 257° |
| 2026-04-30 10:17 | 51.28154 | -47.92659 | 36427 ft | 489 kts | 257° |
| 2026-04-30 10:17 | 51.26123 | -48.08661 | 36426 ft | 490 kts | 257° |
| 2026-04-30 10:18 | 51.24756 | -48.19332 | 36423 ft | 490 kts | 257° |
| 2026-04-30 10:19 | 51.22694 | -48.35271 | 36434 ft | 491 kts | 256° |
| 2026-04-30 10:19 | 51.21303 | -48.45922 | 36424 ft | 490 kts | 256° |
| 2026-04-30 10:20 | 51.19904 | -48.56555 | 36418 ft | 489 kts | 256° |
| 2026-04-30 10:20 | 51.17794 | -48.72439 | 36420 ft | 487 kts | 256° |
| 2026-04-30 10:21 | 51.16380 | -48.82986 | 36415 ft | 487 kts | 256° |
| 2026-04-30 10:21 | 51.14958 | -48.93517 | 36419 ft | 486 kts | 256° |
| 2026-04-30 10:22 | 51.13528 | -49.04029 | 36417 ft | 485 kts | 256° |
| 2026-04-30 10:22 | 51.12091 | -49.14523 | 36415 ft | 485 kts | 256° |
| 2026-04-30 10:23 | 51.10643 | -49.25017 | 36423 ft | 485 kts | 255° |
| 2026-04-30 10:23 | 51.09188 | -49.35495 | 36414 ft | 485 kts | 255° |
| 2026-04-30 10:24 | 51.07724 | -49.45950 | 36409 ft | 484 kts | 255° |
| 2026-04-30 10:24 | 51.06253 | -49.56386 | 36407 ft | 484 kts | 255° |
| 2026-04-30 10:25 | 51.04774 | -49.66814 | 36407 ft | 483 kts | 255° |
| 2026-04-30 10:25 | 51.03289 | -49.77214 | 36404 ft | 483 kts | 255° |
| 2026-04-30 10:26 | 51.01794 | -49.87614 | 36407 ft | 483 kts | 255° |
| 2026-04-30 10:26 | 51.00284 | -49.98010 | 36409 ft | 483 kts | 253° |
| 2026-04-30 10:27 | 50.98177 | -50.08005 | 36410 ft | 480 kts | 246° |
| 2026-04-30 10:27 | 50.95749 | -50.17870 | 36401 ft | 480 kts | 246° |
| 2026-04-30 10:28 | 50.93333 | -50.27722 | 36396 ft | 479 kts | 246° |
| 2026-04-30 10:28 | 50.90934 | -50.37579 | 36398 ft | 479 kts | 246° |
| 2026-04-30 10:29 | 50.88542 | -50.47409 | 36397 ft | 478 kts | 246° |
| 2026-04-30 10:29 | 50.86140 | -50.57235 | 36394 ft | 478 kts | 246° |
| 2026-04-30 10:30 | 50.83729 | -50.67049 | 36394 ft | 478 kts | 246° |
| 2026-04-30 10:30 | 50.81308 | -50.76859 | 36394 ft | 478 kts | 246° |
| 2026-04-30 10:31 | 50.78880 | -50.86652 | 36394 ft | 479 kts | 246° |
| 2026-04-30 10:31 | 50.76457 | -50.96385 | 36389 ft | 479 kts | 246° |
| 2026-04-30 10:32 | 50.74009 | -51.06171 | 36390 ft | 479 kts | 246° |
| 2026-04-30 10:32 | 50.71552 | -51.15955 | 36399 ft | 479 kts | 246° |
| 2026-04-30 10:33 | 50.69090 | -51.25713 | 36382 ft | 478 kts | 245° |
| 2026-04-30 10:33 | 50.66628 | -51.35433 | 36386 ft | 477 kts | 245° |
| 2026-04-30 10:34 | 50.64158 | -51.45136 | 36381 ft | 476 kts | 245° |
| 2026-04-30 10:34 | 50.61687 | -51.54807 | 36380 ft | 476 kts | 245° |
| 2026-04-30 10:35 | 50.59211 | -51.64455 | 36380 ft | 475 kts | 245° |
| 2026-04-30 10:35 | 50.56743 | -51.74029 | 36372 ft | 475 kts | 245° |
| 2026-04-30 10:36 | 50.54238 | -51.83709 | 36377 ft | 475 kts | 245° |
| 2026-04-30 10:36 | 50.51741 | -51.93323 | 36371 ft | 475 kts | 245° |
| 2026-04-30 10:37 | 50.49264 | -52.02885 | 36372 ft | 476 kts | 246° |
| 2026-04-30 10:37 | 50.46963 | -52.12629 | 36379 ft | 476 kts | 248° |
| 2026-04-30 10:38 | 50.44726 | -52.22410 | 36366 ft | 476 kts | 248° |
| 2026-04-30 10:38 | 50.42466 | -52.32160 | 36367 ft | 475 kts | 247° |
| 2026-04-30 10:39 | 50.40181 | -52.41866 | 36365 ft | 474 kts | 247° |
| 2026-04-30 10:39 | 50.37884 | -52.51543 | 36356 ft | 474 kts | 247° |
| 2026-04-30 10:40 | 50.35578 | -52.61206 | 36355 ft | 473 kts | 247° |
| 2026-04-30 10:40 | 50.33269 | -52.70848 | 36356 ft | 473 kts | 247° |
| 2026-04-30 10:41 | 50.30952 | -52.80482 | 36356 ft | 473 kts | 247° |
| 2026-04-30 10:41 | 50.28624 | -52.90121 | 36351 ft | 473 kts | 247° |
| 2026-04-30 10:42 | 50.26287 | -52.99756 | 36351 ft | 474 kts | 247° |
| 2026-04-30 10:42 | 50.23940 | -53.09388 | 36356 ft | 474 kts | 246° |
| 2026-04-30 10:43 | 50.21587 | -53.19002 | 36349 ft | 474 kts | 246° |
| 2026-04-30 10:43 | 50.19226 | -53.28610 | 36341 ft | 474 kts | 246° |
| 2026-04-30 10:44 | 50.16857 | -53.38206 | 36343 ft | 474 kts | 246° |
| 2026-04-30 10:44 | 50.14495 | -53.47731 | 36341 ft | 474 kts | 246° |
| 2026-04-30 10:45 | 50.12111 | -53.57308 | 36342 ft | 474 kts | 246° |
| 2026-04-30 10:45 | 50.09719 | -53.66872 | 36336 ft | 474 kts | 246° |
| 2026-04-30 10:46 | 50.07319 | -53.76427 | 36336 ft | 474 kts | 246° |
| 2026-04-30 10:46 | 50.04913 | -53.85969 | 36337 ft | 474 kts | 246° |
| 2026-04-30 10:47 | 50.02498 | -53.95504 | 36345 ft | 474 kts | 246° |
| 2026-04-30 10:47 | 50.00074 | -54.05027 | 36331 ft | 474 kts | 246° |
| 2026-04-30 10:48 | 49.97643 | -54.14548 | 36329 ft | 474 kts | 246° |
| 2026-04-30 10:48 | 49.95199 | -54.24075 | 36326 ft | 474 kts | 246° |
| 2026-04-30 10:49 | 49.92749 | -54.33587 | 36322 ft | 475 kts | 246° |
| 2026-04-30 10:49 | 49.90288 | -54.43102 | 36325 ft | 475 kts | 246° |
| 2026-04-30 10:50 | 49.87838 | -54.52533 | 36313 ft | 475 kts | 246° |
| 2026-04-30 10:50 | 49.85360 | -54.62036 | 36313 ft | 476 kts | 246° |
| 2026-04-30 10:51 | 49.82872 | -54.71535 | 36307 ft | 476 kts | 246° |
| 2026-04-30 10:51 | 49.80373 | -54.81036 | 36303 ft | 476 kts | 246° |
| 2026-04-30 10:52 | 49.77866 | -54.90529 | 36310 ft | 477 kts | 246° |
| 2026-04-30 10:52 | 49.75350 | -55.00015 | 36304 ft | 477 kts | 246° |
| 2026-04-30 10:53 | 49.72824 | -55.09502 | 36306 ft | 477 kts | 246° |
| 2026-04-30 10:53 | 49.70291 | -55.18976 | 36298 ft | 477 kts | 246° |
| 2026-04-30 10:54 | 49.68181 | -55.26839 | 36298 ft | 477 kts | 246° |
| 2026-04-30 10:54 | 49.65216 | -55.37839 | 36365 ft | 479 kts | 246° |
| 2026-04-30 10:55 | 49.63934 | -55.42582 | 36634 ft | 479 kts | 246° |
| 2026-04-30 10:55 | 49.62648 | -55.47329 | 36969 ft | 478 kts | 246° |
| 2026-04-30 10:55 | 49.61367 | -55.52044 | 37315 ft | 476 kts | 246° |
| 2026-04-30 10:55 | 49.60519 | -55.55163 | 37530 ft | 476 kts | 246° |
| 2026-04-30 10:56 | 49.59240 | -55.59860 | 37830 ft | 475 kts | 247° |
| 2026-04-30 10:56 | 49.57961 | -55.64546 | 38099 ft | 475 kts | 247° |
| 2026-04-30 10:56 | 49.56676 | -55.69246 | 38228 ft | 477 kts | 247° |
| 2026-04-30 10:56 | 49.55383 | -55.73964 | 38294 ft | 478 kts | 246° |
| 2026-04-30 10:57 | 49.52804 | -55.83343 | 38293 ft | 474 kts | 246° |
| 2026-04-30 10:57 | 49.50241 | -55.92635 | 38302 ft | 470 kts | 246° |
| 2026-04-30 10:58 | 49.47685 | -56.01860 | 38303 ft | 468 kts | 246° |
| 2026-04-30 10:58 | 49.45127 | -56.11056 | 38304 ft | 467 kts | 246° |
| 2026-04-30 10:59 | 49.42564 | -56.20236 | 38304 ft | 468 kts | 245° |
| 2026-04-30 10:59 | 49.39988 | -56.29424 | 38305 ft | 469 kts | 245° |
| 2026-04-30 11:00 | 49.37401 | -56.38620 | 38308 ft | 470 kts | 245° |
| 2026-04-30 11:00 | 49.34800 | -56.47826 | 38302 ft | 471 kts | 245° |
| 2026-04-30 11:01 | 49.32186 | -56.57045 | 38299 ft | 472 kts | 245° |
| 2026-04-30 11:01 | 49.29575 | -56.66215 | 38301 ft | 473 kts | 245° |
| 2026-04-30 11:02 | 49.26939 | -56.75441 | 38304 ft | 473 kts | 245° |
| 2026-04-30 11:02 | 49.24289 | -56.84678 | 38298 ft | 474 kts | 245° |
| 2026-04-30 11:03 | 49.21633 | -56.93901 | 38296 ft | 474 kts | 245° |
| 2026-04-30 11:04 | 49.17633 | -57.07722 | 38292 ft | 474 kts | 244° |
| 2026-04-30 11:04 | 49.14957 | -57.16927 | 38293 ft | 474 kts | 244° |
| 2026-04-30 11:05 | 49.12277 | -57.26112 | 38289 ft | 473 kts | 244° |
| 2026-04-30 11:05 | 49.09593 | -57.35274 | 38286 ft | 473 kts | 244° |
| 2026-04-30 11:06 | 49.06902 | -57.44425 | 38284 ft | 472 kts | 244° |
| 2026-04-30 11:06 | 49.04229 | -57.53481 | 38283 ft | 471 kts | 244° |
| 2026-04-30 11:07 | 49.01517 | -57.62635 | 38290 ft | 470 kts | 243° |
| 2026-04-30 11:07 | 48.98838 | -57.71643 | 38285 ft | 469 kts | 243° |
| 2026-04-30 11:08 | 48.96143 | -57.80671 | 38281 ft | 468 kts | 243° |
| 2026-04-30 11:08 | 48.93444 | -57.89680 | 38282 ft | 468 kts | 243° |
| 2026-04-30 11:09 | 48.90740 | -57.98674 | 38279 ft | 468 kts | 243° |
| 2026-04-30 11:09 | 48.88029 | -58.07656 | 38280 ft | 468 kts | 243° |
| 2026-04-30 11:10 | 48.85309 | -58.16635 | 38283 ft | 468 kts | 243° |
| 2026-04-30 11:10 | 48.82578 | -58.25618 | 38283 ft | 469 kts | 243° |
| 2026-04-30 11:11 | 48.79841 | -58.34590 | 38282 ft | 469 kts | 243° |
| 2026-04-30 11:11 | 48.77100 | -58.43541 | 38288 ft | 468 kts | 243° |
| 2026-04-30 11:12 | 48.74352 | -58.52482 | 38278 ft | 467 kts | 242° |
| 2026-04-30 11:12 | 48.71601 | -58.61401 | 38268 ft | 467 kts | 242° |
| 2026-04-30 11:13 | 48.68848 | -58.70296 | 38271 ft | 466 kts | 242° |
| 2026-04-30 11:13 | 48.66092 | -58.79165 | 38266 ft | 465 kts | 242° |
| 2026-04-30 11:14 | 48.63332 | -58.88019 | 38273 ft | 465 kts | 242° |
| 2026-04-30 11:14 | 48.60570 | -58.96845 | 38271 ft | 465 kts | 242° |
| 2026-04-30 11:15 | 48.57819 | -59.05608 | 38271 ft | 464 kts | 242° |
| 2026-04-30 11:15 | 48.55043 | -59.14418 | 38273 ft | 464 kts | 241° |
| 2026-04-30 11:16 | 48.52264 | -59.23205 | 38277 ft | 464 kts | 241° |
| 2026-04-30 11:16 | 48.49480 | -59.31981 | 38261 ft | 464 kts | 241° |
| 2026-04-30 11:17 | 48.46690 | -59.40744 | 38266 ft | 463 kts | 241° |
| 2026-04-30 11:17 | 48.43896 | -59.49489 | 38257 ft | 463 kts | 241° |
| 2026-04-30 11:18 | 48.41096 | -59.58221 | 38260 ft | 463 kts | 241° |
| 2026-04-30 11:18 | 48.36882 | -59.71305 | 38258 ft | 463 kts | 241° |
| 2026-04-30 11:19 | 48.34066 | -59.80014 | 38253 ft | 463 kts | 241° |
| 2026-04-30 11:19 | 48.31240 | -59.88721 | 38251 ft | 464 kts | 241° |
| 2026-04-30 11:20 | 48.28405 | -59.97428 | 38259 ft | 464 kts | 241° |
| 2026-04-30 11:20 | 48.25561 | -60.06132 | 38254 ft | 464 kts | 240° |
| 2026-04-30 11:21 | 48.22726 | -60.14778 | 38248 ft | 465 kts | 240° |
| 2026-04-30 11:21 | 48.19863 | -60.23482 | 38244 ft | 465 kts | 240° |
| 2026-04-30 11:22 | 48.16995 | -60.32169 | 38245 ft | 465 kts | 240° |
| 2026-04-30 11:22 | 48.14120 | -60.40848 | 38237 ft | 465 kts | 240° |
| 2026-04-30 11:23 | 48.11240 | -60.49513 | 38241 ft | 465 kts | 240° |
| 2026-04-30 11:24 | 48.06899 | -60.62521 | 38238 ft | 466 kts | 240° |
| 2026-04-30 11:24 | 48.03994 | -60.71187 | 38243 ft | 466 kts | 240° |
| 2026-04-30 11:25 | 47.99621 | -60.84181 | 38228 ft | 467 kts | 240° |
| 2026-04-30 11:26 | 47.93756 | -61.01501 | 38216 ft | 468 kts | 240° |
| 2026-04-30 11:26 | 47.90813 | -61.10152 | 38215 ft | 468 kts | 240° |
| 2026-04-30 11:27 | 47.87860 | -61.18802 | 38209 ft | 468 kts | 240° |
| 2026-04-30 11:27 | 47.84901 | -61.27439 | 38209 ft | 468 kts | 240° |
| 2026-04-30 11:28 | 47.80463 | -61.40340 | 38196 ft | 469 kts | 240° |
| 2026-04-30 11:29 | 47.77480 | -61.48977 | 38219 ft | 470 kts | 240° |
| 2026-04-30 11:29 | 47.72983 | -61.61939 | 38190 ft | 471 kts | 240° |
| 2026-04-30 11:30 | 47.68464 | -61.74904 | 38199 ft | 471 kts | 240° |
| 2026-04-30 11:31 | 47.65442 | -61.83538 | 38203 ft | 472 kts | 240° |
| 2026-04-30 11:31 | 47.62410 | -61.92174 | 38189 ft | 472 kts | 240° |
| 2026-04-30 11:32 | 47.59372 | -62.00797 | 38188 ft | 472 kts | 240° |
| 2026-04-30 11:32 | 47.56324 | -62.09418 | 38193 ft | 472 kts | 240° |
| 2026-04-30 11:33 | 47.51764 | -62.22265 | 38185 ft | 472 kts | 240° |
| 2026-04-30 11:33 | 47.48698 | -62.30868 | 38193 ft | 473 kts | 240° |
| 2026-04-30 11:34 | 47.45622 | -62.39472 | 38191 ft | 473 kts | 240° |
| 2026-04-30 11:34 | 47.42538 | -62.48068 | 38187 ft | 474 kts | 240° |
| 2026-04-30 11:35 | 47.39445 | -62.56660 | 38183 ft | 474 kts | 240° |
| 2026-04-30 11:35 | 47.36344 | -62.65250 | 38182 ft | 474 kts | 240° |
| 2026-04-30 11:36 | 47.33236 | -62.73829 | 38183 ft | 474 kts | 240° |
| 2026-04-30 11:36 | 47.30121 | -62.82402 | 38181 ft | 475 kts | 240° |
| 2026-04-30 11:37 | 47.26994 | -62.90978 | 38172 ft | 475 kts | 240° |
| 2026-04-30 11:37 | 47.23860 | -62.99547 | 38182 ft | 475 kts | 240° |
| 2026-04-30 11:38 | 47.20716 | -63.08115 | 38169 ft | 476 kts | 240° |
| 2026-04-30 11:38 | 47.17585 | -63.16619 | 38159 ft | 476 kts | 240° |
| 2026-04-30 11:39 | 47.14424 | -63.25179 | 38157 ft | 477 kts | 240° |
| 2026-04-30 11:39 | 47.11252 | -63.33742 | 38155 ft | 477 kts | 240° |
| 2026-04-30 11:40 | 47.08075 | -63.42290 | 38154 ft | 477 kts | 240° |
| 2026-04-30 11:40 | 47.04893 | -63.50824 | 38146 ft | 477 kts | 239° |
| 2026-04-30 11:41 | 47.01704 | -63.59348 | 38146 ft | 477 kts | 240° |
| 2026-04-30 11:41 | 46.98511 | -63.67858 | 38146 ft | 477 kts | 240° |
| 2026-04-30 11:42 | 46.95310 | -63.76361 | 38147 ft | 477 kts | 240° |
| 2026-04-30 11:42 | 46.92100 | -63.84861 | 38140 ft | 477 kts | 240° |
| 2026-04-30 11:43 | 46.88885 | -63.93348 | 38134 ft | 477 kts | 240° |
| 2026-04-30 11:43 | 46.85688 | -64.01762 | 38129 ft | 477 kts | 240° |
| 2026-04-30 11:44 | 46.82463 | -64.10223 | 38129 ft | 477 kts | 240° |
| 2026-04-30 11:44 | 46.79229 | -64.18680 | 38122 ft | 477 kts | 240° |
| 2026-04-30 11:45 | 46.75988 | -64.27128 | 38126 ft | 477 kts | 240° |
| 2026-04-30 11:45 | 46.73291 | -64.34140 | 38110 ft | 477 kts | 240° |
| 2026-04-30 11:46 | 46.70048 | -64.42546 | 38112 ft | 476 kts | 240° |
| 2026-04-30 11:46 | 46.66798 | -64.50945 | 38108 ft | 475 kts | 239° |
| 2026-04-30 11:47 | 46.63550 | -64.59312 | 38100 ft | 475 kts | 239° |
| 2026-04-30 11:47 | 46.60298 | -64.67664 | 38096 ft | 474 kts | 239° |
| 2026-04-30 11:48 | 46.57039 | -64.76008 | 38104 ft | 474 kts | 239° |
| 2026-04-30 11:48 | 46.53777 | -64.84335 | 38104 ft | 474 kts | 239° |
| 2026-04-30 11:49 | 46.50510 | -64.92651 | 38100 ft | 474 kts | 239° |
| 2026-04-30 11:49 | 46.47235 | -65.00959 | 38099 ft | 474 kts | 239° |
| 2026-04-30 11:50 | 46.43956 | -65.09253 | 38091 ft | 474 kts | 239° |
| 2026-04-30 11:50 | 46.40668 | -65.17544 | 38084 ft | 474 kts | 239° |
| 2026-04-30 11:51 | 46.37375 | -65.25823 | 38088 ft | 474 kts | 239° |
| 2026-04-30 11:51 | 46.34075 | -65.34093 | 38076 ft | 475 kts | 239° |
| 2026-04-30 11:52 | 46.30784 | -65.42317 | 38086 ft | 475 kts | 239° |
| 2026-04-30 11:52 | 46.27463 | -65.50594 | 38081 ft | 476 kts | 239° |
| 2026-04-30 11:53 | 46.24129 | -65.58876 | 38083 ft | 477 kts | 239° |
| 2026-04-30 11:53 | 46.20787 | -65.67151 | 38080 ft | 478 kts | 239° |
| 2026-04-30 11:54 | 46.17433 | -65.75433 | 38071 ft | 478 kts | 239° |
| 2026-04-30 11:54 | 46.14071 | -65.83710 | 38072 ft | 478 kts | 239° |
| 2026-04-30 11:55 | 46.10698 | -65.91988 | 38067 ft | 479 kts | 239° |
| 2026-04-30 11:55 | 46.07314 | -66.00269 | 38066 ft | 480 kts | 239° |
| 2026-04-30 11:56 | 46.03924 | -66.08540 | 38057 ft | 480 kts | 239° |
| 2026-04-30 11:56 | 46.00528 | -66.16801 | 38054 ft | 479 kts | 239° |
| 2026-04-30 11:57 | 45.97128 | -66.25046 | 38052 ft | 479 kts | 239° |
| 2026-04-30 11:57 | 45.93723 | -66.33282 | 38046 ft | 479 kts | 239° |
| 2026-04-30 11:58 | 45.90319 | -66.41488 | 38053 ft | 477 kts | 239° |
| 2026-04-30 11:58 | 45.86921 | -66.49656 | 38045 ft | 476 kts | 239° |
| 2026-04-30 11:59 | 45.83533 | -66.57777 | 38051 ft | 473 kts | 239° |
| 2026-04-30 11:59 | 45.80158 | -66.65844 | 38040 ft | 470 kts | 239° |
| 2026-04-30 12:00 | 45.76798 | -66.73851 | 38047 ft | 467 kts | 239° |
| 2026-04-30 12:00 | 45.73475 | -66.81746 | 38033 ft | 464 kts | 239° |
| 2026-04-30 12:01 | 45.70145 | -66.89637 | 38033 ft | 463 kts | 239° |
| 2026-04-30 12:01 | 45.66813 | -66.97510 | 38028 ft | 462 kts | 239° |
| 2026-04-30 12:02 | 45.63521 | -67.05267 | 38036 ft | 462 kts | 238° |
| 2026-04-30 12:02 | 45.60174 | -67.13132 | 38019 ft | 462 kts | 238° |
| 2026-04-30 12:03 | 45.55157 | -67.24880 | 38023 ft | 462 kts | 238° |
| 2026-04-30 12:04 | 45.51809 | -67.32693 | 38011 ft | 462 kts | 238° |
| 2026-04-30 12:04 | 45.48455 | -67.40497 | 38005 ft | 462 kts | 238° |
| 2026-04-30 12:05 | 45.45118 | -67.48243 | 38005 ft | 462 kts | 238° |
| 2026-04-30 12:05 | 45.41753 | -67.56033 | 38005 ft | 462 kts | 238° |
| 2026-04-30 12:06 | 45.38380 | -67.63821 | 37995 ft | 462 kts | 237° |
| 2026-04-30 12:06 | 45.35244 | -67.71790 | 37991 ft | 463 kts | 246° |
| 2026-04-30 12:07 | 45.33218 | -67.80487 | 38002 ft | 465 kts | 256° |
| 2026-04-30 12:07 | 45.32131 | -67.89585 | 37988 ft | 467 kts | 259° |
| 2026-04-30 12:08 | 45.31145 | -67.98724 | 37989 ft | 468 kts | 259° |
| 2026-04-30 12:08 | 45.30130 | -68.07861 | 37981 ft | 468 kts | 258° |
| 2026-04-30 12:09 | 45.29084 | -68.17008 | 37982 ft | 469 kts | 258° |
| 2026-04-30 12:09 | 45.28020 | -68.26147 | 37967 ft | 469 kts | 258° |
| 2026-04-30 12:10 | 45.26948 | -68.35292 | 37972 ft | 470 kts | 258° |
| 2026-04-30 12:10 | 45.25868 | -68.44452 | 37950 ft | 471 kts | 258° |
| 2026-04-30 12:11 | 45.24787 | -68.53557 | 37967 ft | 471 kts | 258° |
| 2026-04-30 12:11 | 45.23692 | -68.62716 | 37950 ft | 470 kts | 258° |
| 2026-04-30 12:12 | 45.22590 | -68.71860 | 37948 ft | 470 kts | 258° |
| 2026-04-30 12:12 | 45.21482 | -68.81005 | 37945 ft | 471 kts | 257° |
| 2026-04-30 12:13 | 45.20365 | -68.90151 | 37939 ft | 470 kts | 257° |
| 2026-04-30 12:13 | 45.19242 | -68.99284 | 37941 ft | 470 kts | 257° |
| 2026-04-30 12:14 | 45.18110 | -69.08421 | 37936 ft | 470 kts | 257° |
| 2026-04-30 12:14 | 45.16974 | -69.17539 | 37920 ft | 470 kts | 257° |
| 2026-04-30 12:15 | 45.15829 | -69.26673 | 37929 ft | 471 kts | 257° |
| 2026-04-30 12:15 | 45.14675 | -69.35803 | 37909 ft | 471 kts | 257° |
| 2026-04-30 12:16 | 45.13514 | -69.44923 | 37919 ft | 470 kts | 256° |
| 2026-04-30 12:16 | 45.12346 | -69.54045 | 37904 ft | 470 kts | 256° |
| 2026-04-30 12:17 | 45.10582 | -69.67716 | 37905 ft | 471 kts | 256° |
| 2026-04-30 12:17 | 45.09401 | -69.76785 | 37888 ft | 472 kts | 256° |
| 2026-04-30 12:18 | 45.08202 | -69.85937 | 37900 ft | 473 kts | 256° |
| 2026-04-30 12:18 | 45.06993 | -69.95097 | 37894 ft | 474 kts | 256° |
| 2026-04-30 12:19 | 45.05776 | -70.04276 | 37874 ft | 475 kts | 256° |
| 2026-04-30 12:19 | 45.04550 | -70.13455 | 37893 ft | 476 kts | 256° |
| 2026-04-30 12:20 | 45.03312 | -70.22661 | 37873 ft | 477 kts | 256° |
| 2026-04-30 12:20 | 45.02067 | -70.31864 | 37872 ft | 477 kts | 256° |
| 2026-04-30 12:21 | 45.00815 | -70.41062 | 37868 ft | 477 kts | 256° |
| 2026-04-30 12:21 | 44.99556 | -70.50256 | 37874 ft | 475 kts | 256° |
| 2026-04-30 12:22 | 44.98294 | -70.59408 | 37869 ft | 474 kts | 256° |
| 2026-04-30 12:22 | 44.97028 | -70.68535 | 37860 ft | 473 kts | 255° |
| 2026-04-30 12:23 | 44.95758 | -70.77629 | 37858 ft | 472 kts | 255° |
| 2026-04-30 12:23 | 44.94483 | -70.86706 | 37851 ft | 471 kts | 255° |
| 2026-04-30 12:24 | 44.93200 | -70.95780 | 37845 ft | 472 kts | 255° |
| 2026-04-30 12:24 | 44.91909 | -71.04869 | 37861 ft | 473 kts | 255° |
| 2026-04-30 12:25 | 44.90607 | -71.13968 | 37832 ft | 474 kts | 255° |
| 2026-04-30 12:25 | 44.89298 | -71.23070 | 37841 ft | 474 kts | 255° |
| 2026-04-30 12:26 | 44.87981 | -71.32174 | 37829 ft | 474 kts | 255° |
| 2026-04-30 12:26 | 44.86663 | -71.41224 | 37822 ft | 474 kts | 255° |
| 2026-04-30 12:27 | 44.85329 | -71.50334 | 37821 ft | 475 kts | 255° |
| 2026-04-30 12:27 | 44.83987 | -71.59454 | 37819 ft | 475 kts | 255° |
| 2026-04-30 12:28 | 44.82399 | -71.68468 | 37801 ft | 472 kts | 247° |
| 2026-04-30 12:28 | 44.79649 | -71.76802 | 37817 ft | 468 kts | 237° |
| 2026-04-30 12:29 | 44.76043 | -71.84397 | 37815 ft | 466 kts | 233° |
| 2026-04-30 12:29 | 44.72345 | -71.91878 | 37822 ft | 466 kts | 233° |
| 2026-04-30 12:30 | 44.68654 | -71.99381 | 37845 ft | 467 kts | 234° |
| 2026-04-30 12:30 | 44.64976 | -72.06899 | 37837 ft | 467 kts | 234° |
| 2026-04-30 12:31 | 44.61320 | -72.14373 | 37822 ft | 467 kts | 234° |
| 2026-04-30 12:31 | 44.57636 | -72.21883 | 37800 ft | 467 kts | 234° |
| 2026-04-30 12:32 | 44.53943 | -72.29390 | 37803 ft | 467 kts | 234° |
| 2026-04-30 12:32 | 44.50248 | -72.36882 | 37805 ft | 467 kts | 234° |
| 2026-04-30 12:33 | 44.47176 | -72.43095 | 37788 ft | 467 kts | 234° |
| 2026-04-30 12:33 | 44.43474 | -72.50563 | 37820 ft | 467 kts | 234° |
| 2026-04-30 12:34 | 44.39769 | -72.58020 | 37801 ft | 466 kts | 234° |
| 2026-04-30 12:34 | 44.36061 | -72.65462 | 37795 ft | 465 kts | 234° |
| 2026-04-30 12:35 | 44.32364 | -72.72865 | 37787 ft | 464 kts | 234° |
| 2026-04-30 12:35 | 44.28666 | -72.80249 | 37815 ft | 464 kts | 234° |
| 2026-04-30 12:36 | 44.24968 | -72.87618 | 37814 ft | 463 kts | 233° |
| 2026-04-30 12:36 | 44.21267 | -72.94970 | 37794 ft | 463 kts | 233° |
| 2026-04-30 12:37 | 44.17566 | -73.02305 | 37770 ft | 462 kts | 233° |
| 2026-04-30 12:37 | 44.13861 | -73.09629 | 37782 ft | 463 kts | 233° |
| 2026-04-30 12:38 | 44.10149 | -73.16949 | 37761 ft | 462 kts | 234° |
| 2026-04-30 12:38 | 44.06439 | -73.24248 | 37754 ft | 462 kts | 233° |
| 2026-04-30 12:39 | 44.02721 | -73.31542 | 37761 ft | 462 kts | 233° |
| 2026-04-30 12:39 | 43.99023 | -73.38781 | 37757 ft | 462 kts | 233° |
| 2026-04-30 12:40 | 43.95296 | -73.46057 | 37748 ft | 462 kts | 234° |
| 2026-04-30 12:40 | 43.91568 | -73.53318 | 37752 ft | 462 kts | 234° |
| 2026-04-30 12:41 | 43.87835 | -73.60571 | 37763 ft | 462 kts | 233° |
| 2026-04-30 12:41 | 43.84104 | -73.67802 | 37758 ft | 462 kts | 233° |
| 2026-04-30 12:42 | 43.80359 | -73.75041 | 37757 ft | 462 kts | 234° |
| 2026-04-30 12:42 | 43.76614 | -73.82265 | 37754 ft | 462 kts | 233° |
| 2026-04-30 12:43 | 43.72864 | -73.89483 | 37755 ft | 462 kts | 233° |
| 2026-04-30 12:43 | 43.68969 | -73.96544 | 37765 ft | 462 kts | 228° |
| 2026-04-30 12:44 | 43.64336 | -74.02688 | 37779 ft | 462 kts | 221° |
| 2026-04-30 12:44 | 43.59473 | -74.08508 | 37771 ft | 463 kts | 221° |
| 2026-04-30 12:45 | 43.54629 | -74.14361 | 37762 ft | 463 kts | 221° |
| 2026-04-30 12:45 | 43.49788 | -74.20231 | 37761 ft | 463 kts | 222° |
| 2026-04-30 12:46 | 43.44998 | -74.26152 | 37771 ft | 462 kts | 227° |
| 2026-04-30 12:46 | 43.43091 | -74.29624 | 37787 ft | 462 kts | 238° |
| 2026-04-30 12:46 | 43.41591 | -74.33608 | 37788 ft | 463 kts | 246° |
| 2026-04-30 12:47 | 43.39986 | -74.42120 | 37797 ft | 466 kts | 258° |
| 2026-04-30 12:47 | 43.38942 | -74.50933 | 37795 ft | 468 kts | 259° |
| 2026-04-30 12:48 | 43.37872 | -74.59770 | 37793 ft | 469 kts | 258° |
| 2026-04-30 12:48 | 43.36749 | -74.68610 | 37803 ft | 469 kts | 258° |
| 2026-04-30 12:49 | 43.35599 | -74.77441 | 37803 ft | 470 kts | 258° |
| 2026-04-30 12:49 | 43.34438 | -74.86273 | 37809 ft | 469 kts | 258° |
| 2026-04-30 12:50 | 43.33271 | -74.95105 | 37804 ft | 469 kts | 258° |
| 2026-04-30 12:50 | 43.32101 | -75.03919 | 37831 ft | 469 kts | 258° |
| 2026-04-30 12:51 | 43.30932 | -75.12674 | 37852 ft | 469 kts | 258° |
| 2026-04-30 12:51 | 43.29751 | -75.21472 | 37858 ft | 469 kts | 258° |
| 2026-04-30 12:52 | 43.28563 | -75.30262 | 37866 ft | 468 kts | 258° |
| 2026-04-30 12:52 | 43.27368 | -75.39043 | 37867 ft | 468 kts | 258° |
| 2026-04-30 12:53 | 43.26166 | -75.47831 | 37882 ft | 468 kts | 258° |
| 2026-04-30 12:53 | 43.24959 | -75.56600 | 37854 ft | 467 kts | 258° |
| 2026-04-30 12:54 | 43.23750 | -75.65338 | 37859 ft | 466 kts | 258° |
| 2026-04-30 12:54 | 43.22537 | -75.74050 | 37854 ft | 465 kts | 257° |
| 2026-04-30 12:55 | 43.21318 | -75.82747 | 37858 ft | 464 kts | 257° |
| 2026-04-30 12:55 | 43.20096 | -75.91427 | 37843 ft | 464 kts | 257° |
| 2026-04-30 12:56 | 43.18865 | -76.00111 | 37889 ft | 465 kts | 257° |
| 2026-04-30 12:56 | 43.17626 | -76.08807 | 37877 ft | 464 kts | 258° |
| 2026-04-30 12:57 | 43.16383 | -76.17478 | 37904 ft | 464 kts | 257° |
| 2026-04-30 12:57 | 43.15141 | -76.26100 | 37886 ft | 464 kts | 257° |
| 2026-04-30 12:58 | 43.13884 | -76.34768 | 37880 ft | 464 kts | 257° |
| 2026-04-30 12:58 | 43.12622 | -76.43429 | 37886 ft | 464 kts | 257° |
| 2026-04-30 12:59 | 43.11355 | -76.52077 | 37899 ft | 463 kts | 257° |
| 2026-04-30 12:59 | 43.10082 | -76.60727 | 37884 ft | 463 kts | 257° |
| 2026-04-30 13:00 | 43.08280 | -76.69163 | 37891 ft | 462 kts | 248° |
| 2026-04-30 13:00 | 43.05518 | -76.77072 | 37874 ft | 461 kts | 240° |
| 2026-04-30 13:01 | 43.02326 | -76.84673 | 37876 ft | 461 kts | 240° |
| 2026-04-30 13:01 | 42.99140 | -76.92267 | 37894 ft | 460 kts | 240° |
| 2026-04-30 13:02 | 42.95979 | -76.99861 | 37892 ft | 460 kts | 240° |
| 2026-04-30 13:02 | 42.92824 | -77.07443 | 37893 ft | 459 kts | 240° |
| 2026-04-30 13:03 | 42.89669 | -77.15017 | 37890 ft | 459 kts | 242° |
| 2026-04-30 13:03 | 42.86896 | -77.22766 | 37898 ft | 458 kts | 245° |
| 2026-04-30 13:04 | 42.84168 | -77.30680 | 37902 ft | 458 kts | 245° |
| 2026-04-30 13:04 | 42.81442 | -77.38538 | 37902 ft | 459 kts | 245° |
| 2026-04-30 13:05 | 42.78700 | -77.46387 | 37902 ft | 459 kts | 245° |
| 2026-04-30 13:06 | 42.74589 | -77.58098 | 37905 ft | 460 kts | 245° |
| 2026-04-30 13:06 | 42.71824 | -77.65945 | 37907 ft | 460 kts | 245° |
| 2026-04-30 13:07 | 42.69059 | -77.73770 | 37899 ft | 459 kts | 245° |
| 2026-04-30 13:07 | 42.66296 | -77.81569 | 37902 ft | 458 kts | 245° |
| 2026-04-30 13:08 | 42.63529 | -77.89360 | 37907 ft | 457 kts | 244° |
| 2026-04-30 13:08 | 42.60765 | -77.97118 | 37926 ft | 456 kts | 245° |
| 2026-04-30 13:09 | 42.58001 | -78.04854 | 37906 ft | 456 kts | 245° |
| 2026-04-30 13:09 | 42.55234 | -78.12577 | 37914 ft | 455 kts | 244° |
| 2026-04-30 13:10 | 42.52463 | -78.20291 | 37908 ft | 455 kts | 244° |
| 2026-04-30 13:10 | 42.49691 | -78.27987 | 37906 ft | 454 kts | 244° |
| 2026-04-30 13:11 | 42.46913 | -78.35680 | 37917 ft | 455 kts | 244° |
| 2026-04-30 13:11 | 42.44125 | -78.43379 | 37901 ft | 455 kts | 244° |
| 2026-04-30 13:12 | 42.41333 | -78.51064 | 37893 ft | 454 kts | 244° |
| 2026-04-30 13:12 | 42.38544 | -78.58724 | 37903 ft | 454 kts | 244° |
| 2026-04-30 13:13 | 42.34351 | -78.70199 | 37919 ft | 454 kts | 244° |
| 2026-04-30 13:14 | 42.30141 | -78.81674 | 37919 ft | 455 kts | 244° |
| 2026-04-30 13:14 | 42.25915 | -78.93150 | 37927 ft | 455 kts | 244° |
| 2026-04-30 13:15 | 42.21676 | -79.04617 | 37929 ft | 455 kts | 244° |
| 2026-04-30 13:16 | 42.18892 | -79.12289 | 37935 ft | 455 kts | 247° |
| 2026-04-30 13:16 | 42.16754 | -79.20243 | 37916 ft | 455 kts | 251° |
| 2026-04-30 13:17 | 42.13672 | -79.32331 | 37919 ft | 455 kts | 251° |
| 2026-04-30 13:18 | 42.10549 | -79.44397 | 37929 ft | 454 kts | 251° |
| 2026-04-30 13:18 | 42.07409 | -79.56435 | 37931 ft | 454 kts | 251° |
| 2026-04-30 13:19 | 42.05309 | -79.64451 | 37937 ft | 454 kts | 251° |
| 2026-04-30 13:19 | 42.03205 | -79.72460 | 37947 ft | 454 kts | 251° |
| 2026-04-30 13:20 | 42.01453 | -79.79106 | 37953 ft | 453 kts | 251° |
| 2026-04-30 13:20 | 41.99341 | -79.87095 | 37963 ft | 454 kts | 251° |
| 2026-04-30 13:21 | 41.97220 | -79.95094 | 37962 ft | 454 kts | 251° |
| 2026-04-30 13:22 | 41.94031 | -80.07068 | 37954 ft | 453 kts | 251° |
| 2026-04-30 13:22 | 41.90835 | -80.19010 | 37976 ft | 453 kts | 251° |
| 2026-04-30 13:23 | 41.87628 | -80.30940 | 37960 ft | 453 kts | 251° |
| 2026-04-30 13:24 | 41.83334 | -80.46818 | 37959 ft | 453 kts | 251° |
| 2026-04-30 13:25 | 41.79020 | -80.62667 | 37960 ft | 452 kts | 251° |
| 2026-04-30 13:26 | 41.73621 | -80.82365 | 37967 ft | 452 kts | 251° |
| 2026-04-30 13:28 | 41.68173 | -81.02083 | 37976 ft | 452 kts | 251° |
| 2026-04-30 13:28 | 41.64891 | -81.13887 | 37998 ft | 452 kts | 251° |
| 2026-04-30 13:29 | 41.60497 | -81.29604 | 38010 ft | 451 kts | 251° |
| 2026-04-30 13:31 | 41.54993 | -81.49156 | 37990 ft | 451 kts | 251° |
| 2026-04-30 13:32 | 41.49442 | -81.68725 | 37998 ft | 451 kts | 251° |
| 2026-04-30 13:33 | 41.44981 | -81.84343 | 37991 ft | 450 kts | 251° |
| 2026-04-30 13:34 | 41.41626 | -81.96026 | 37989 ft | 449 kts | 251° |
| 2026-04-30 13:35 | 41.37143 | -82.11565 | 38024 ft | 449 kts | 251° |
| 2026-04-30 13:36 | 41.31598 | -82.26447 | 38013 ft | 452 kts | 244° |
| 2026-04-30 13:36 | 41.27029 | -82.37383 | 38018 ft | 451 kts | 244° |
| 2026-04-30 13:37 | 41.22474 | -82.48323 | 38022 ft | 451 kts | 244° |
| 2026-04-30 13:38 | 41.17919 | -82.59236 | 38025 ft | 450 kts | 244° |
| 2026-04-30 13:39 | 41.11831 | -82.73757 | 37983 ft | 450 kts | 244° |
| 2026-04-30 13:40 | 41.07264 | -82.84603 | 38018 ft | 449 kts | 244° |
| 2026-04-30 13:40 | 41.04217 | -82.91818 | 38029 ft | 449 kts | 244° |
| 2026-04-30 13:41 | 41.01162 | -82.99034 | 38026 ft | 449 kts | 244° |
| 2026-04-30 13:41 | 40.98106 | -83.06237 | 38027 ft | 449 kts | 244° |
| 2026-04-30 13:42 | 40.95041 | -83.13444 | 38030 ft | 450 kts | 244° |
| 2026-04-30 13:42 | 40.90446 | -83.24212 | 38032 ft | 449 kts | 244° |
| 2026-04-30 13:43 | 40.87368 | -83.31404 | 38032 ft | 449 kts | 244° |
| 2026-04-30 13:43 | 40.84288 | -83.38587 | 38031 ft | 449 kts | 244° |
| 2026-04-30 13:44 | 40.81202 | -83.45764 | 38036 ft | 449 kts | 244° |
| 2026-04-30 13:44 | 40.78111 | -83.52936 | 38041 ft | 450 kts | 244° |
| 2026-04-30 13:45 | 40.73467 | -83.63679 | 38028 ft | 449 kts | 244° |
| 2026-04-30 13:46 | 40.70368 | -83.70827 | 38038 ft | 448 kts | 244° |
| 2026-04-30 13:46 | 40.67269 | -83.77959 | 38048 ft | 448 kts | 244° |
| 2026-04-30 13:47 | 40.64169 | -83.85075 | 38051 ft | 447 kts | 244° |
| 2026-04-30 13:47 | 40.61073 | -83.92167 | 38058 ft | 447 kts | 244° |
| 2026-04-30 13:48 | 40.57969 | -83.99262 | 38056 ft | 447 kts | 244° |
| 2026-04-30 13:48 | 40.54884 | -84.06296 | 38056 ft | 447 kts | 244° |
| 2026-04-30 13:49 | 40.51772 | -84.13376 | 38073 ft | 447 kts | 244° |
| 2026-04-30 13:49 | 40.48654 | -84.20451 | 38075 ft | 447 kts | 244° |
| 2026-04-30 13:50 | 40.45534 | -84.27517 | 38074 ft | 447 kts | 244° |
| 2026-04-30 13:50 | 40.40839 | -84.38116 | 38071 ft | 447 kts | 244° |
| 2026-04-30 13:51 | 40.39278 | -84.41633 | 37551 ft | 449 kts | 244° |
| 2026-04-30 13:51 | 40.37711 | -84.45159 | 36982 ft | 443 kts | 244° |
| 2026-04-30 13:51 | 40.36158 | -84.48647 | 36228 ft | 441 kts | 244° |
| 2026-04-30 13:51 | 40.34615 | -84.52110 | 35349 ft | 439 kts | 244° |
| 2026-04-30 13:52 | 40.33085 | -84.55543 | 34612 ft | 434 kts | 245° |
| 2026-04-30 13:52 | 40.31577 | -84.58920 | 34087 ft | 425 kts | 245° |
| 2026-04-30 13:52 | 40.30098 | -84.62226 | 33513 ft | 416 kts | 245° |
| 2026-04-30 13:52 | 40.28684 | -84.65477 | 32947 ft | 405 kts | 249° |
| 2026-04-30 13:53 | 40.27637 | -84.68843 | 32328 ft | 395 kts | 256° |
| 2026-04-30 13:53 | 40.26882 | -84.72271 | 31677 ft | 389 kts | 259° |
| 2026-04-30 13:53 | 40.26282 | -84.75714 | 30927 ft | 387 kts | 262° |
| 2026-04-30 13:53 | 40.25998 | -84.79211 | 30091 ft | 386 kts | 268° |
| 2026-04-30 13:54 | 40.25882 | -84.82727 | 29120 ft | 387 kts | 269° |
| 2026-04-30 13:54 | 40.25779 | -84.86254 | 28168 ft | 388 kts | 269° |
| 2026-04-30 13:54 | 40.25671 | -84.89782 | 27316 ft | 388 kts | 269° |
| 2026-04-30 13:54 | 40.25554 | -84.93298 | 26585 ft | 385 kts | 269° |
| 2026-04-30 13:55 | 40.25431 | -84.96778 | 25917 ft | 381 kts | 269° |
| 2026-04-30 13:55 | 40.25303 | -85.00218 | 25275 ft | 377 kts | 269° |
| 2026-04-30 13:55 | 40.25174 | -85.03635 | 24618 ft | 375 kts | 269° |
| 2026-04-30 13:55 | 40.25044 | -85.07029 | 23966 ft | 372 kts | 269° |
| 2026-04-30 13:56 | 40.24916 | -85.10358 | 23293 ft | 370 kts | 269° |
| 2026-04-30 13:56 | 40.24786 | -85.13712 | 22578 ft | 367 kts | 269° |
| 2026-04-30 13:56 | 40.24654 | -85.17082 | 21883 ft | 365 kts | 269° |
| 2026-04-30 13:56 | 40.24523 | -85.20345 | 21222 ft | 362 kts | 269° |
| 2026-04-30 13:57 | 40.24386 | -85.23630 | 20569 ft | 361 kts | 269° |
| 2026-04-30 13:57 | 40.24250 | -85.26897 | 19931 ft | 359 kts | 269° |
| 2026-04-30 13:57 | 40.24114 | -85.30149 | 19326 ft | 357 kts | 269° |
| 2026-04-30 13:57 | 40.23975 | -85.33433 | 18754 ft | 356 kts | 269° |
| 2026-04-30 13:58 | 40.23718 | -85.36641 | 18108 ft | 356 kts | 262° |
| 2026-04-30 13:58 | 40.22235 | -85.42782 | 16869 ft | 357 kts | 251° |
| 2026-04-30 13:58 | 40.21090 | -85.45677 | 16272 ft | 358 kts | 245° |
| 2026-04-30 13:59 | 40.19854 | -85.48495 | 15681 ft | 357 kts | 245° |
| 2026-04-30 13:59 | 40.18618 | -85.51303 | 15136 ft | 355 kts | 245° |
| 2026-04-30 13:59 | 40.17396 | -85.54103 | 14599 ft | 353 kts | 245° |
| 2026-04-30 13:59 | 40.16188 | -85.56889 | 14079 ft | 352 kts | 245° |
| 2026-04-30 14:00 | 40.14989 | -85.59662 | 13569 ft | 349 kts | 245° |
| 2026-04-30 14:00 | 40.12658 | -85.65068 | 13004 ft | 333 kts | 246° |
| 2026-04-30 14:00 | 40.11540 | -85.67688 | 12708 ft | 327 kts | 246° |
| 2026-04-30 14:01 | 40.10439 | -85.70268 | 12315 ft | 325 kts | 246° |
| 2026-04-30 14:01 | 40.09340 | -85.72847 | 11836 ft | 325 kts | 246° |
| 2026-04-30 14:01 | 40.08236 | -85.75431 | 11353 ft | 326 kts | 246° |
| 2026-04-30 14:01 | 40.07142 | -85.77984 | 10912 ft | 326 kts | 246° |
| 2026-04-30 14:02 | 40.06036 | -85.80563 | 10481 ft | 326 kts | 246° |
| 2026-04-30 14:02 | 40.04890 | -85.83119 | 10110 ft | 326 kts | 244° |
| 2026-04-30 14:02 | 40.03679 | -85.85661 | 10009 ft | 332 kts | 243° |
| 2026-04-30 14:02 | 40.02453 | -85.88207 | 10011 ft | 330 kts | 243° |
| 2026-04-30 14:03 | 40.01241 | -85.90731 | 10003 ft | 327 kts | 243° |
| 2026-04-30 14:03 | 40.00041 | -85.93240 | 9999 ft | 325 kts | 243° |
| 2026-04-30 14:03 | 39.98867 | -85.95696 | 9995 ft | 311 kts | 244° |
| 2026-04-30 14:03 | 39.97756 | -85.98022 | 9988 ft | 294 kts | 244° |
| 2026-04-30 14:04 | 39.96702 | -86.00236 | 9991 ft | 283 kts | 244° |
| 2026-04-30 14:04 | 39.95671 | -86.02407 | 9990 ft | 280 kts | 244° |
| 2026-04-30 14:04 | 39.94645 | -86.04562 | 9985 ft | 279 kts | 243° |
| 2026-04-30 14:04 | 39.93587 | -86.06686 | 9676 ft | 279 kts | 242° |
| 2026-04-30 14:05 | 39.92524 | -86.08769 | 9399 ft | 273 kts | 242° |
| 2026-04-30 14:05 | 39.91478 | -86.10813 | 9127 ft | 268 kts | 242° |
| 2026-04-30 14:05 | 39.90455 | -86.12820 | 8864 ft | 265 kts | 242° |
| 2026-04-30 14:05 | 39.89437 | -86.14822 | 8637 ft | 265 kts | 243° |
| 2026-04-30 14:06 | 39.88422 | -86.16823 | 8380 ft | 264 kts | 243° |
| 2026-04-30 14:06 | 39.86389 | -86.20821 | 7873 ft | 265 kts | 243° |
| 2026-04-30 14:07 | 39.84362 | -86.24798 | 7369 ft | 259 kts | 244° |
| 2026-04-30 14:07 | 39.83391 | -86.26740 | 7137 ft | 254 kts | 244° |
| 2026-04-30 14:07 | 39.82439 | -86.28668 | 6911 ft | 253 kts | 245° |
| 2026-04-30 14:08 | 39.80531 | -86.32526 | 6494 ft | 250 kts | 245° |
| 2026-04-30 14:08 | 39.79607 | -86.34383 | 6303 ft | 240 kts | 245° |
| 2026-04-30 14:08 | 39.77991 | -86.37226 | 5787 ft | 237 kts | 232° |
| 2026-04-30 14:09 | 39.76792 | -86.38700 | 5431 ft | 237 kts | 229° |
| 2026-04-30 14:09 | 39.75201 | -86.40615 | 5064 ft | 230 kts | 228° |
| 2026-04-30 14:09 | 39.72686 | -86.43138 | 5026 ft | 231 kts | 239° |
| 2026-04-30 14:10 | 39.71997 | -86.44251 | 5031 ft | 238 kts | 235° |
| 2026-04-30 14:10 | 39.70869 | -86.45842 | 5013 ft | 239 kts | 232° |
| 2026-04-30 14:10 | 39.69712 | -86.47366 | 4986 ft | 234 kts | 230° |
| 2026-04-30 14:10 | 39.68313 | -86.48442 | 4999 ft | 242 kts | 197° |
| 2026-04-30 14:11 | 39.66641 | -86.48849 | 5030 ft | 248 kts | 194° |
| 2026-04-30 14:11 | 39.64918 | -86.49177 | 4985 ft | 252 kts | 178° |
| 2026-04-30 14:11 | 39.63296 | -86.48436 | 5010 ft | 249 kts | 139° |
| 2026-04-30 14:11 | 39.62261 | -86.46718 | 5023 ft | 240 kts | 104° |
| 2026-04-30 14:12 | 39.62202 | -86.44748 | 4980 ft | 203 kts | 58° |
| 2026-04-30 14:12 | 39.62949 | -86.43422 | 5041 ft | 176 kts | 38° |
| 2026-04-30 14:12 | 39.63666 | -86.42187 | 4984 ft | 166 kts | 51° |
| 2026-04-30 14:12 | 39.64229 | -86.40932 | 4900 ft | 160 kts | 52° |
| 2026-04-30 14:13 | 39.64771 | -86.39687 | 4410 ft | 157 kts | 50° |
| 2026-04-30 14:13 | 39.65423 | -86.38612 | 3904 ft | 152 kts | 39° |
| 2026-04-30 14:13 | 39.66173 | -86.37648 | 3378 ft | 146 kts | 37° |
| 2026-04-30 14:13 | 39.66917 | -86.36784 | 2872 ft | 142 kts | 36° |
| 2026-04-30 14:14 | 39.67633 | -86.35916 | 2391 ft | 139 kts | 38° |
| 2026-04-30 14:14 | 39.68313 | -86.35046 | 1933 ft | 138 kts | 43° |
| 2026-04-30 14:14 | 39.68964 | -86.34150 | 1476 ft | 135 kts | 40° |
| 2026-04-30 14:14 | 39.69673 | -86.33303 | 1211 ft | 142 kts | 41° |
| 2026-04-30 14:15 | 39.70381 | -86.32387 | 942 ft | 144 kts | 42° |
| 2026-04-30 14:15 | 39.71093 | -86.31486 | 783 ft | 136 kts | 41° |
| 2026-04-30 14:15 | 39.71657 | -86.30784 | 782 ft | 86 kts | 44° |
| 2026-04-30 14:15 | 39.71960 | -86.30387 | 781 ft | 39 kts | 55° |
| 2026-04-30 14:16 | 39.71978 | -86.30171 | 785 ft | 20 kts | 96° |
| 2026-04-30 14:16 | 39.72029 | -86.30011 | 786 ft | 20 kts | 42° |
| 2026-04-30 14:16 | 39.72129 | -86.29885 | 786 ft | 20 kts | 45° |
| 2026-04-30 14:16 | 39.72226 | -86.29761 | 786 ft | 18 kts | 48° |
| 2026-04-30 14:17 | 39.72201 | -86.29626 | 786 ft | 17 kts | 133° |
| 2026-04-30 14:17 | 39.72116 | -86.29515 | 786 ft | 17 kts | 135° |
| 2026-04-30 14:17 | 39.72032 | -86.29403 | 786 ft | 17 kts | 133° |
| 2026-04-30 14:17 | 39.71948 | -86.29290 | 786 ft | 17 kts | 135° |
| 2026-04-30 14:18 | 39.71864 | -86.29180 | 786 ft | 17 kts | 134° |
| 2026-04-30 14:18 | 39.71779 | -86.29069 | 786 ft | 17 kts | 135° |
| 2026-04-30 14:18 | 39.71616 | -86.28853 | 786 ft | 16 kts | 134° |
| 2026-04-30 14:19 | 39.71676 | -86.28638 | 787 ft | 15 kts | 44° |
| 2026-04-30 14:19 | 39.71750 | -86.28542 | 787 ft | 15 kts | 49° |
| 2026-04-30 14:19 | 39.71728 | -86.28424 | 787 ft | 15 kts | 133° |
| 2026-04-30 14:20 | 39.71654 | -86.28327 | 789 ft | 15 kts | 135° |
| 2026-04-30 14:20 | 39.71565 | -86.28285 | 787 ft | 15 kts | 210° |
| 2026-04-30 14:20 | 39.71415 | -86.28283 | 787 ft | 9 kts | 155° |
| 2026-04-30 14:21 | 39.71362 | -86.28249 | 786 ft | 8 kts | 144° |
| 2026-04-30 14:21 | 39.71335 | -86.28216 | 786 ft | 0 kts | 135° |